Data Archive--September, 2004

Date Time Heat Index Current Temp Wind Chill High Temp Low Temp Humidity Dew Point Wind Speed Gust Wind Direction Rain Barometer
09/01/2004 12:00 a 67.1 67.1 67.1 67.7 66.5 77 59.7 0.0 2.0 ESE 0.00 29.978
09/01/2004 12:30 a 65.8 65.8 65.8 66.5 64.9 81 59.8 0.0 0.0 --- 0.00 29.980
09/01/2004 1:00 a 64.2 64.2 64.2 64.9 63.3 84 59.3 0.0 0.0 --- 0.00 29.981
09/01/2004 1:30 a 62.5 62.5 62.5 63.3 61.9 88 58.9 0.0 0.0 --- 0.00 29.985
09/01/2004 2:00 a 61.4 61.4 61.4 61.9 60.9 89 58.1 0.0 0.0 --- 0.00 29.989
09/01/2004 2:30 a 60.9 60.9 60.9 61.3 60.7 89 57.6 0.0 0.0 --- 0.00 29.986
09/01/2004 3:00 a 60.5 60.5 60.5 61.2 60.1 90 57.6 0.0 0.0 --- 0.00 29.991
09/01/2004 3:30 a 59.8 59.8 59.8 60.2 59.3 93 57.8 0.0 0.0 --- 0.00 29.988
09/01/2004 4:00 a 58.8 58.8 58.8 59.3 58.4 95 57.4 0.0 0.0 --- 0.00 29.990
09/01/2004 4:30 a 58.2 58.2 58.2 58.4 58.0 96 57.1 0.0 0.0 --- 0.00 29.986
09/01/2004 5:00 a 57.7 57.7 57.7 58.0 57.2 98 57.1 0.0 0.0 --- 0.00 29.985
09/01/2004 5:30 a 57.2 57.2 57.2 57.3 57.0 100 57.2 0.0 0.0 --- 0.00 29.987
09/01/2004 6:00 a 57.0 57.0 57.0 57.2 56.7 100 57.0 0.0 0.0 --- 0.00 29.995
09/01/2004 6:30 a 56.5 56.5 56.5 56.7 56.3 100 56.5 0.0 0.0 --- 0.00 30.006
09/01/2004 7:00 a 56.4 56.4 56.4 56.7 56.3 100 56.4 0.0 0.0 --- 0.00 30.013
09/01/2004 7:30 a 57.3 57.3 57.3 58.0 56.7 100 57.3 0.0 0.0 --- 0.00 30.018
09/01/2004 8:00 a 59.3 59.3 59.3 60.9 58.0 97 58.5 0.0 0.0 --- 0.00 30.025
09/01/2004 8:30 a 62.6 62.6 62.6 64.1 61.0 88 59.0 0.0 0.0 --- 0.00 30.030
09/01/2004 9:00 a 67.8 67.8 67.8 71.7 64.1 71 58.1 0.0 2.0 ESE 0.00 30.037
09/01/2004 9:30 a 71.0 70.6 70.6 71.1 69.9 70 60.4 0.0 1.0 ESE 0.00 30.043
09/01/2004 10:00 a 72.0 72.2 72.2 74.3 70.7 64 59.4 0.0 2.0 ESE 0.00 30.041
09/01/2004 10:30 a 73.5 73.4 73.4 74.2 73.2 65 60.9 0.0 1.0 --- 0.00 30.043
09/01/2004 11:00 a 74.8 74.1 74.1 74.6 73.8 64 61.2 0.0 2.0 ESE 0.00 30.041
09/01/2004 11:30 a 75.4 75.3 75.3 76.3 74.6 62 61.4 0.0 2.0 ESE 0.00 30.028
09/01/2004 12:00 p 77.0 76.5 76.5 77.9 75.9 57 60.2 0.0 2.0 ESE 0.00 30.017
09/01/2004 12:30 p 78.1 78.1 78.1 80.2 77.7 51 58.5 0.0 3.0 ESE 0.00 30.009
09/01/2004 1:00 p 91.6 88.8 88.8 92.7 80.2 44 64.1 0.0 4.0 ESE 0.00 30.003
09/01/2004 1:30 p 84.6 86.0 86.0 90.7 82.3 33 53.6 0.0 3.0 ESE 0.00 30.001
09/01/2004 2:00 p 93.3 93.4 93.4 95.6 90.8 31 58.3 1.0 4.0 ESE 0.00 29.995
09/01/2004 2:30 p 85.8 84.5 84.5 90.5 82.9 44 60.2 0.0 3.0 ESE 0.00 29.990
09/01/2004 3:00 p 81.0 81.4 81.4 83.1 80.1 48 59.8 0.0 2.0 SE 0.00 29.986
09/01/2004 3:30 p 81.0 80.9 80.9 81.5 80.3 45 57.6 1.0 5.0 ESE 0.00 29.984
09/01/2004 4:00 p 81.0 81.3 81.3 81.5 81.0 45 58.0 0.0 4.0 ESE 0.00 29.980
09/01/2004 4:30 p 81.0 80.9 80.9 81.4 80.6 44 57.0 0.0 4.0 ESE 0.00 29.975
09/01/2004 5:00 p 80.0 80.0 80.0 80.6 79.4 46 57.4 0.0 3.0 ESE 0.00 29.977
09/01/2004 5:30 p 79.0 78.9 78.9 79.4 78.4 48 57.6 0.0 3.0 SE 0.00 29.974
09/01/2004 6:00 p 78.0 77.9 77.9 78.4 77.4 50 57.8 0.0 1.0 SE 0.00 29.976
09/01/2004 6:30 p 77.0 77.1 77.1 77.4 76.4 55 59.7 0.0 2.0 ESE 0.00 29.983
09/01/2004 7:00 p 75.8 75.3 75.3 76.4 73.5 64 62.3 0.0 1.0 ESE 0.00 29.982
09/01/2004 7:30 p 72.4 71.9 71.9 73.5 70.5 72 62.4 0.0 0.0 --- 0.00 29.984
09/01/2004 8:00 p 70.4 69.3 69.3 70.5 68.3 77 61.8 0.0 0.0 --- 0.00 30.000
09/01/2004 8:30 p 67.7 67.7 67.7 68.3 67.1 81 61.7 0.0 0.0 --- 0.00 30.010
09/01/2004 9:00 p 67.5 67.5 67.5 67.7 67.1 81 61.5 0.0 0.0 --- 0.00 30.016
09/01/2004 9:30 p 66.8 66.8 66.8 67.7 65.9 84 61.8 0.0 0.0 --- 0.00 30.024
09/01/2004 10:00 p 65.5 65.5 65.5 65.9 65.3 82 59.9 0.0 0.0 --- 0.00 30.026
09/01/2004 10:30 p 65.2 65.2 65.2 65.4 64.7 82 59.6 0.0 0.0 --- 0.00 30.032
09/01/2004 11:00 p 64.0 64.0 64.0 64.7 63.3 85 59.4 0.0 0.0 --- 0.00 30.038
09/01/2004 11:30 p 62.7 62.7 62.7 63.3 62.4 86 58.5 0.0 0.0 --- 0.00 30.044
09/02/2004 12:00 a 62.0 62.0 62.0 62.4 61.6 88 58.4 0.0 0.0 --- 0.00 30.042
09/02/2004 12:30 a 61.2 61.2 61.2 61.6 60.8 89 57.9 0.0 0.0 --- 0.00 30.052
09/02/2004 1:00 a 60.7 60.7 60.7 60.8 60.4 89 57.4 0.0 0.0 --- 0.00 30.048
09/02/2004 1:30 a 60.1 60.1 60.1 60.4 60.0 91 57.5 0.0 0.0 --- 0.00 30.055
09/02/2004 2:00 a 60.0 60.0 60.0 60.0 59.9 92 57.7 0.0 0.0 --- 0.00 30.052
09/02/2004 2:30 a 59.6 59.6 59.6 59.9 59.2 93 57.6 0.0 0.0 --- 0.00 30.059
09/02/2004 3:00 a 59.1 59.1 59.1 59.3 58.8 94 57.4 0.0 0.0 --- 0.00 30.064
09/02/2004 3:30 a 58.6 58.6 58.6 58.8 58.5 94 56.9 0.0 0.0 --- 0.00 30.071
09/02/2004 4:00 a 58.2 58.2 58.2 58.5 58.0 95 56.8 0.0 0.0 --- 0.00 30.081
09/02/2004 4:30 a 57.9 57.9 57.9 58.0 57.8 96 56.8 0.0 0.0 --- 0.00 30.081
09/02/2004 5:00 a 57.6 57.6 57.6 57.8 57.5 97 56.8 0.0 0.0 --- 0.00 30.088
09/02/2004 5:30 a 57.4 57.4 57.4 57.5 57.3 100 57.4 0.0 0.0 --- 0.00 30.089
09/02/2004 6:00 a 57.5 57.5 57.5 57.6 57.4 99 57.2 0.0 0.0 --- 0.00 30.098
09/02/2004 6:30 a 57.7 57.7 57.7 58.0 57.5 99 57.4 0.0 0.0 --- 0.00 30.101
09/02/2004 7:00 a 58.3 58.3 58.3 58.5 58.0 96 57.2 0.0 0.0 --- 0.00 30.115
09/02/2004 7:30 a 59.1 59.1 59.1 60.4 58.3 93 57.1 0.0 0.0 --- 0.00 30.124
09/02/2004 8:00 a 62.1 62.1 62.1 63.8 60.4 85 57.5 0.0 1.0 ESE 0.00 30.126
09/02/2004 8:30 a 64.6 64.6 64.6 65.1 63.8 82 59.0 0.0 0.0 --- 0.00 30.128
09/02/2004 9:00 a 68.2 68.2 68.2 71.6 65.1 71 58.4 0.0 0.0 --- 0.00 30.132
09/02/2004 9:30 a 70.0 69.5 69.5 69.8 69.3 70 59.3 0.0 4.0 SE 0.00 30.136
09/02/2004 10:00 a 71.0 71.4 71.4 73.5 69.8 62 57.7 0.0 2.0 SE 0.00 30.141
09/02/2004 10:30 a 72.0 72.3 72.3 73.8 71.7 66 60.3 0.0 2.0 S 0.00 30.143
09/02/2004 11:00 a 72.0 72.3 72.3 73.2 71.9 61 58.1 0.0 2.0 SSE 0.00 30.140
09/02/2004 11:30 a 74.0 73.9 73.9 74.7 73.2 58 58.2 0.0 2.0 SW 0.00 30.134
09/02/2004 12:00 p 75.0 74.5 74.5 74.9 74.3 58 58.8 0.0 3.0 SE 0.00 30.131
09/02/2004 12:30 p 75.0 75.3 75.3 76.6 74.9 57 59.0 0.0 2.0 SE 0.00 30.117
09/02/2004 1:00 p 85.0 85.4 85.4 90.5 76.6 40 58.4 0.0 0.0 --- 0.00 30.113
09/02/2004 1:30 p 81.0 81.8 81.8 87.0 78.8 35 51.5 0.0 0.0 --- 0.00 30.114
09/02/2004 2:00 p 86.0 85.4 85.4 90.1 81.2 45 61.7 0.0 0.0 --- 0.00 30.113
09/02/2004 2:30 p 80.0 80.0 80.0 81.0 78.4 49 59.1 0.0 0.0 --- 0.00 30.112
09/02/2004 3:00 p 78.1 78.2 78.2 78.9 77.4 51 58.6 0.0 0.0 --- 0.00 30.107
09/02/2004 3:30 p 77.0 76.9 76.9 77.7 76.4 54 59.0 0.0 0.0 --- 0.00 30.106
09/02/2004 4:00 p 77.8 77.9 77.9 78.7 77.0 48 56.7 0.0 0.0 --- 0.00 30.105
09/02/2004 4:30 p 78.2 78.2 78.2 78.9 77.0 52 59.2 0.0 0.0 --- 0.00 30.104
09/02/2004 5:00 p 76.0 75.9 75.9 76.9 75.1 55 58.6 0.0 0.0 --- 0.00 30.100
09/02/2004 5:30 p 75.0 75.1 75.1 75.2 74.9 58 59.3 0.0 0.0 --- 0.00 30.096
09/02/2004 6:00 p 74.0 74.4 74.4 74.9 74.0 59 59.2 0.0 0.0 --- 0.00 30.095
09/02/2004 6:30 p 73.1 73.3 73.3 73.9 72.7 61 59.1 0.0 0.0 --- 0.00 30.099
09/02/2004 7:00 p 72.0 72.0 72.0 72.7 71.3 66 60.0 0.0 0.0 --- 0.00 30.099
09/02/2004 7:30 p 71.0 70.8 70.8 71.3 69.8 70 60.5 0.0 0.0 --- 0.00 30.100
09/02/2004 8:00 p 69.6 69.2 69.2 69.8 68.3 73 60.2 0.0 0.0 --- 0.00 30.108
09/02/2004 8:30 p 66.8 66.8 66.8 68.3 65.9 81 60.8 0.0 0.0 --- 0.00 30.122
09/02/2004 9:00 p 65.3 65.3 65.3 65.9 64.7 83 60.0 0.0 0.0 --- 0.00 30.124
09/02/2004 9:30 p 64.1 64.1 64.1 64.7 63.4 86 59.8 0.0 0.0 --- 0.00 30.124
09/02/2004 10:00 p 62.9 62.9 62.9 63.3 62.4 89 59.6 0.0 0.0 --- 0.00 30.125
09/02/2004 10:30 p 61.9 61.9 61.9 62.4 61.7 91 59.2 0.0 0.0 --- 0.00 30.128
09/02/2004 11:00 p 61.2 61.2 61.2 61.7 60.7 94 59.5 0.0 0.0 --- 0.00 30.134
09/02/2004 11:30 p 60.5 60.5 60.5 60.7 60.1 95 59.1 0.0 0.0 --- 0.00 30.128
09/03/2004 12:00 a 60.0 60.0 60.0 60.1 59.9 96 58.9 0.0 0.0 --- 0.00 30.131
09/03/2004 12:30 a 59.6 59.6 59.6 59.9 59.4 99 59.3 0.0 0.0 --- 0.00 30.133
09/03/2004 1:00 a 59.4 59.4 59.4 59.5 59.2 100 59.4 0.0 0.0 --- 0.00 30.136
09/03/2004 1:30 a 58.9 58.9 58.9 59.2 58.6 100 58.9 0.0 0.0 --- 0.00 30.134
09/03/2004 2:00 a 58.5 58.5 58.5 58.6 58.3 100 58.5 0.0 0.0 --- 0.00 30.128
09/03/2004 2:30 a 58.2 58.2 58.2 58.3 58.0 100 58.2 0.0 0.0 --- 0.00 30.126
09/03/2004 3:00 a 57.9 57.9 57.9 58.0 57.7 100 57.9 0.0 0.0 --- 0.00 30.119
09/03/2004 3:30 a 57.6 57.6 57.6 57.7 57.4 100 57.6 0.0 0.0 --- 0.00 30.121
09/03/2004 4:00 a 57.4 57.4 57.4 57.4 57.3 100 57.4 0.0 0.0 --- 0.00 30.115
09/03/2004 4:30 a 57.1 57.1 57.1 57.3 57.0 100 57.1 0.0 0.0 --- 0.00 30.121
09/03/2004 5:00 a 56.8 56.8 56.8 57.0 56.7 100 56.8 0.0 0.0 --- 0.00 30.114
09/03/2004 5:30 a 56.5 56.5 56.5 56.7 56.4 100 56.5 0.0 0.0 --- 0.00 30.118
09/03/2004 6:00 a 56.3 56.3 56.3 56.4 56.2 100 56.3 0.0 0.0 --- 0.00 30.119
09/03/2004 6:30 a 56.1 56.1 56.1 56.2 56.0 100 56.1 0.0 0.0 --- 0.00 30.121
09/03/2004 7:00 a 56.1 56.1 56.1 56.2 56.0 100 56.1 0.0 0.0 --- 0.00 30.130
09/03/2004 7:30 a 56.7 56.7 56.7 57.3 56.2 100 56.7 0.0 0.0 --- 0.00 30.127
09/03/2004 8:00 a 58.6 58.6 58.6 60.5 57.3 100 58.6 0.0 0.0 --- 0.00 30.130
09/03/2004 8:30 a 62.0 62.0 62.0 63.5 60.5 100 62.0 0.0 0.0 --- 0.00 30.126
09/03/2004 9:00 a 67.7 67.7 67.7 72.5 63.5 83 62.4 0.0 0.0 --- 0.00 30.127
09/03/2004 9:30 a 71.8 69.6 69.6 70.4 69.2 79 62.8 0.0 0.0 --- 0.00 30.130
09/03/2004 10:00 a 72.4 71.7 71.7 73.3 70.4 72 62.2 0.0 1.0 NE 0.00 30.128
09/03/2004 10:30 a 73.9 73.1 73.1 73.9 72.7 69 62.3 0.0 2.0 NE 0.00 30.126
09/03/2004 11:00 a 75.4 73.7 73.7 74.3 73.1 67 62.1 0.0 2.0 NE 0.00 30.124
09/03/2004 11:30 a 76.0 76.2 76.2 77.7 74.3 57 59.9 0.0 2.0 NE 0.00 30.116
09/03/2004 12:00 p 78.7 77.5 77.5 77.8 77.3 57 61.1 0.0 3.0 E 0.00 30.110
09/03/2004 12:30 p 78.5 78.2 78.2 78.7 77.1 55 60.7 0.0 3.0 N 0.00 30.107
09/03/2004 1:00 p 86.6 85.0 85.0 90.2 76.8 48 63.1 0.0 4.0 NNE 0.00 30.097
09/03/2004 1:30 p 82.0 82.8 82.8 89.9 79.4 35 52.4 0.0 2.0 ESE 0.00 30.087
09/03/2004 2:00 p 94.7 89.9 89.9 95.5 84.0 49 68.2 0.0 2.0 N 0.00 30.081
09/03/2004 2:30 p 82.4 80.8 80.8 84.0 78.5 57 64.2 0.0 1.0 N 0.00 30.069
09/03/2004 3:00 p 80.2 80.2 80.2 81.4 78.9 51 60.5 0.0 3.0 WNW 0.00 30.063
09/03/2004 3:30 p 81.0 81.4 81.4 81.9 81.0 49 60.4 0.0 2.0 N 0.00 30.052
09/03/2004 4:00 p 81.0 80.5 80.5 81.9 79.6 50 60.2 0.0 2.0 N 0.00 30.043
09/03/2004 4:30 p 81.8 80.6 80.6 81.6 79.7 54 62.4 0.0 2.0 NNW 0.00 30.041
09/03/2004 5:00 p 80.0 80.1 80.1 80.4 79.8 48 58.7 0.0 1.0 --- 0.00 30.044
09/03/2004 5:30 p 80.6 79.5 79.5 80.3 78.8 53 60.9 0.0 1.0 --- 0.00 30.040
09/03/2004 6:00 p 78.6 78.1 78.1 78.9 76.8 56 61.1 0.0 1.0 N 0.00 30.040
09/03/2004 6:30 p 76.0 75.9 75.9 76.8 74.9 60 61.0 0.0 0.0 --- 0.00 30.028
09/03/2004 7:00 p 76.0 73.8 73.8 74.9 72.6 71 63.8 0.0 0.0 --- 0.00 30.026
09/03/2004 7:30 p 72.0 71.4 71.4 72.6 70.4 75 63.1 0.0 0.0 --- 0.00 30.025
09/03/2004 8:00 p 73.0 70.6 70.6 71.1 70.2 84 65.5 0.0 2.0 N 0.00 30.031
09/03/2004 8:30 p 72.0 69.9 69.9 70.2 69.6 88 66.2 0.0 0.0 --- 0.00 30.031
09/03/2004 9:00 p 72.0 69.5 69.5 69.7 69.0 90 66.4 0.0 0.0 --- 0.00 30.030
09/03/2004 9:30 p 70.0 68.4 68.4 69.0 67.9 93 66.3 0.0 0.0 --- 0.00 30.038
09/03/2004 10:00 p 67.7 67.7 67.7 67.9 67.6 93 65.6 0.0 0.0 --- 0.00 30.032
09/03/2004 10:30 p 67.5 67.5 67.5 67.6 67.5 94 65.7 0.0 0.0 --- 0.00 30.025
09/03/2004 11:00 p 67.5 67.5 67.5 67.6 67.5 95 66.0 0.0 0.0 --- 0.00 30.024
09/03/2004 11:30 p 67.2 67.2 67.2 67.5 66.9 97 66.3 0.0 0.0 --- 0.00 30.025
09/04/2004 12:00 a 66.7 66.7 66.7 66.9 66.5 99 66.4 0.0 0.0 --- 0.00 30.026
09/04/2004 12:30 a 66.2 66.2 66.2 66.5 66.0 100 66.2 0.0 0.0 --- 0.00 30.028
09/04/2004 1:00 a 66.1 66.1 66.1 66.2 65.9 100 66.1 0.0 0.0 --- 0.00 30.031
09/04/2004 1:30 a 65.8 65.8 65.8 65.9 65.6 100 65.8 0.0 0.0 --- 0.00 30.027
09/04/2004 2:00 a 65.4 65.4 65.4 65.6 65.1 100 65.4 0.0 0.0 --- 0.00 30.024
09/04/2004 2:30 a 64.7 64.7 64.7 65.1 64.5 100 64.7 0.0 0.0 --- 0.00 30.027
09/04/2004 3:00 a 64.2 64.2 64.2 64.5 63.9 100 64.2 0.0 0.0 --- 0.00 30.021
09/04/2004 3:30 a 63.6 63.6 63.6 63.9 63.2 100 63.6 0.0 0.0 --- 0.00 30.018
09/04/2004 4:00 a 62.8 62.8 62.8 63.2 62.5 100 62.8 0.0 0.0 --- 0.00 30.019
09/04/2004 4:30 a 62.2 62.2 62.2 62.5 61.9 100 62.2 0.0 0.0 --- 0.00 30.014
09/04/2004 5:00 a 61.9 61.9 61.9 61.9 61.8 100 61.9 0.0 0.0 --- 0.00 30.020
09/04/2004 5:30 a 61.9 61.9 61.9 61.9 61.8 100 61.9 0.0 0.0 --- 0.00 30.017
09/04/2004 6:00 a 61.6 61.6 61.6 61.9 61.4 100 61.6 0.0 0.0 --- 0.00 30.013
09/04/2004 6:30 a 61.5 61.5 61.5 61.6 61.4 100 61.5 0.0 0.0 --- 0.00 30.016
09/04/2004 7:00 a 62.0 62.0 62.0 62.4 61.6 100 62.0 0.0 0.0 --- 0.00 30.019
09/04/2004 7:30 a 62.7 62.7 62.7 63.1 62.4 100 62.7 0.0 0.0 --- 0.00 30.025
09/04/2004 8:00 a 63.8 63.8 63.8 64.5 63.1 100 63.8 0.0 0.0 --- 0.00 30.025
09/04/2004 8:30 a 65.6 65.6 65.6 67.0 64.6 100 65.6 0.0 0.0 --- 0.00 30.023
09/04/2004 9:00 a 71.2 68.7 68.7 70.3 67.0 92 66.3 0.0 0.0 --- 0.00 30.022
09/04/2004 9:30 a 73.0 70.9 70.9 71.9 70.2 84 65.8 0.0 1.0 NNE 0.00 30.026
09/04/2004 10:00 a 73.6 72.2 72.2 73.2 71.7 78 65.0 0.0 0.0 --- 0.00 30.023
09/04/2004 10:30 a 76.0 74.4 74.4 74.7 73.3 72 64.8 0.0 1.0 --- 0.00 30.023
09/04/2004 11:00 a 76.8 75.2 75.2 76.3 74.6 69 64.3 0.0 0.0 --- 0.00 30.023
09/04/2004 11:30 a 78.4 76.9 76.9 77.7 76.3 67 65.1 0.0 2.0 E 0.00 30.017
09/04/2004 12:00 p 79.3 78.4 78.4 78.9 77.7 63 64.8 0.0 1.0 E 0.00 30.015
09/04/2004 12:30 p 81.8 79.9 79.9 83.3 78.9 59 64.3 0.0 1.0 --- 0.00 30.014
09/04/2004 1:00 p 92.8 91.3 91.3 95.4 83.3 39 62.9 0.0 2.0 E 0.00 29.999
09/04/2004 1:30 p 100.6 96.0 96.0 97.1 93.9 39 67.1 0.0 2.0 E 0.00 29.995
09/04/2004 2:00 p 102.5 94.7 94.7 97.3 88.6 47 71.4 0.0 1.0 ESE 0.00 29.985
09/04/2004 2:30 p 87.2 84.7 84.7 88.6 82.6 51 64.6 0.0 2.0 SE 0.00 29.987
09/04/2004 3:00 p 85.0 83.4 83.4 85.4 81.8 54 65.0 0.0 2.0 ENE 0.00 29.979
09/04/2004 3:30 p 85.0 82.9 82.9 84.1 81.7 58 66.6 0.0 1.0 E 0.00 29.976
09/04/2004 4:00 p 86.1 84.2 84.2 84.9 83.2 51 64.1 0.0 1.0 E 0.00 29.968
09/04/2004 4:30 p 86.0 84.4 84.4 84.9 84.2 50 63.7 0.0 3.0 E 0.00 29.964
09/04/2004 5:00 p 86.8 83.6 83.6 84.6 82.0 58 67.3 0.0 2.0 ENE 0.00 29.961
09/04/2004 5:30 p 83.6 80.8 80.8 82.0 79.9 63 67.0 0.0 1.0 N 0.00 29.964
09/04/2004 6:00 p 81.0 79.1 79.1 79.9 78.5 66 66.8 0.0 1.0 N 0.00 29.966
09/04/2004 6:30 p 80.4 77.8 77.8 78.5 76.9 72 68.1 0.0 0.0 --- 0.00 29.970
09/04/2004 7:00 p 78.4 76.2 76.2 76.9 75.4 74 67.3 0.0 0.0 --- 0.00 29.972
09/04/2004 7:30 p 77.0 74.5 74.5 75.3 73.7 78 67.2 0.0 0.0 --- 0.00 29.980
09/04/2004 8:00 p 75.0 73.0 73.0 73.7 72.4 82 67.2 0.0 0.0 --- 0.00 29.993
09/04/2004 8:30 p 74.0 71.6 71.6 72.4 71.0 86 67.2 0.0 0.0 --- 0.00 29.993
09/04/2004 9:00 p 72.0 70.4 70.4 71.0 69.8 90 67.3 0.0 0.0 --- 0.00 30.002
09/04/2004 9:30 p 71.1 69.4 69.4 69.8 69.1 91 66.7 0.0 0.0 --- 0.00 30.003
09/04/2004 10:00 p 71.2 69.0 69.0 69.1 68.8 92 66.6 0.0 0.0 --- 0.00 30.012
09/04/2004 10:30 p 70.0 68.2 68.2 68.8 67.5 95 66.7 0.0 0.0 --- 0.00 30.015
09/04/2004 11:00 p 67.2 67.2 67.2 67.5 66.8 98 66.6 0.0 0.0 --- 0.00 30.017
09/04/2004 11:30 p 66.6 66.6 66.6 66.8 66.5 100 66.6 0.0 0.0 --- 0.00 30.021
09/05/2004 12:00 a 66.3 66.3 66.3 66.5 66.0 100 66.3 0.0 0.0 --- 0.00 30.027
09/05/2004 12:30 a 65.9 65.9 65.9 66.0 65.8 100 65.9 0.0 0.0 --- 0.00 30.027
09/05/2004 1:00 a 65.7 65.7 65.7 65.8 65.7 100 65.7 0.0 0.0 --- 0.00 30.026
09/05/2004 1:30 a 65.5 65.5 65.5 65.8 65.1 100 65.5 0.0 0.0 --- 0.00 30.025
09/05/2004 2:00 a 65.1 65.1 65.1 65.2 65.1 100 65.1 0.0 0.0 --- 0.00 30.025
09/05/2004 2:30 a 65.1 65.1 65.1 65.2 65.0 100 65.1 0.0 0.0 --- 0.00 30.030
09/05/2004 3:00 a 65.7 65.7 65.7 66.5 65.1 100 65.7 0.0 0.0 --- 0.00 30.049
09/05/2004 3:30 a 67.7 67.7 67.7 69.1 66.5 100 67.7 0.0 2.0 NE 0.00 30.050
09/05/2004 4:00 a 72.4 69.7 69.7 69.9 69.1 92 67.3 0.0 3.0 NNW 0.00 30.055
09/05/2004 4:30 a 72.2 69.6 69.6 69.7 69.5 91 66.9 0.0 3.0 NW 0.00 30.065
09/05/2004 5:00 a 72.0 69.5 69.5 69.5 69.4 89 66.1 0.0 2.0 NNW 0.00 30.075
09/05/2004 5:30 a 71.0 69.4 69.4 69.5 69.3 88 65.7 0.0 2.0 NNW 0.00 30.092
09/05/2004 6:00 a 71.0 69.0 69.0 69.3 68.8 88 65.3 0.0 2.0 NNE 0.00 30.103
09/05/2004 6:30 a 70.0 68.4 68.4 68.8 68.1 88 64.7 0.0 1.0 ENE 0.00 30.122
09/05/2004 7:00 a 70.0 68.0 68.0 68.1 67.9 88 64.3 0.0 1.0 ENE 0.00 30.140
09/05/2004 7:30 a 67.6 67.6 67.6 67.9 67.4 88 63.9 0.0 2.0 E 0.00 30.153
09/05/2004 8:00 a 67.2 67.2 67.2 67.4 67.0 87 63.2 0.0 2.0 NE 0.00 30.169
09/05/2004 8:30 a 66.7 66.7 66.7 67.0 66.5 87 62.7 0.0 3.0 NNW 0.00 30.182
09/05/2004 9:00 a 66.6 66.6 66.6 66.7 66.5 83 61.3 0.0 2.0 E 0.00 30.191
09/05/2004 9:30 a 67.1 67.1 67.1 67.6 66.7 78 60.0 0.0 2.0 ENE 0.00 30.203
09/05/2004 10:00 a 69.6 68.1 68.1 68.3 67.6 78 61.0 0.0 3.0 E 0.00 30.210
09/05/2004 10:30 a 70.2 68.5 68.5 68.6 68.3 76 60.6 0.0 1.0 SE 0.00 30.217
09/05/2004 11:00 a 70.0 68.6 68.6 69.0 68.4 75 60.4 0.0 2.0 SE 0.00 30.220
09/05/2004 11:30 a 70.2 68.8 68.8 69.0 68.6 76 60.9 0.0 3.0 N 0.00 30.217
09/05/2004 12:00 p 70.2 69.0 69.0 69.1 68.7 76 61.1 0.0 2.0 N 0.00 30.217
09/05/2004 12:30 p 69.4 69.2 69.2 69.8 69.0 72 59.8 0.0 3.0 N 0.00 30.215
09/05/2004 1:00 p 70.4 69.9 69.9 70.1 69.7 72 60.5 0.0 2.0 N 0.00 30.208
09/05/2004 1:30 p 71.0 70.6 70.6 71.2 70.0 70 60.4 0.0 2.0 N 0.00 30.214
09/05/2004 2:00 p 71.0 71.0 71.0 71.7 70.2 66 59.1 0.0 4.0 N 0.00 30.212
09/05/2004 2:30 p 71.0 71.0 71.0 71.7 70.6 67 59.5 0.0 5.0 NNW 0.00 30.210
09/05/2004 3:00 p 71.0 70.5 70.5 70.8 70.0 66 58.6 1.0 4.0 NNW 0.00 30.203
09/05/2004 3:30 p 71.0 70.8 70.8 71.1 70.2 66 58.9 1.0 4.0 NNW 0.00 30.201
09/05/2004 4:00 p 70.0 70.3 70.3 70.8 69.9 68 59.3 1.0 3.0 N 0.00 30.195
09/05/2004 4:30 p 70.0 69.7 69.7 69.9 69.4 67 58.3 1.0 3.0 NNW 0.00 30.204
09/05/2004 5:00 p 69.0 69.0 69.0 69.5 68.8 67 57.6 1.0 4.0 NNW 0.00 30.203
09/05/2004 5:30 p 68.0 68.3 68.3 68.9 67.7 66 56.5 1.0 5.0 NNW 0.00 30.209
09/05/2004 6:00 p 67.2 67.2 67.2 67.7 66.9 68 56.3 1.0 5.0 NNW 0.00 30.214
09/05/2004 6:30 p 66.5 66.5 66.5 66.9 66.2 67 55.2 1.0 5.0 NNW 0.00 30.216
09/05/2004 7:00 p 65.8 65.8 65.8 66.2 65.5 66 54.1 1.0 4.0 NNW 0.00 30.220
09/05/2004 7:30 p 65.1 65.1 65.1 65.6 64.8 69 54.7 0.0 3.0 NNE 0.00 30.227
09/05/2004 8:00 p 65.0 65.0 65.0 65.2 64.8 69 54.6 0.0 2.0 N 0.00 30.235
09/05/2004 8:30 p 64.3 64.3 64.3 64.9 63.6 69 53.9 0.0 3.0 N 0.00 30.242
09/05/2004 9:00 p 63.5 63.5 63.5 63.8 63.3 71 53.9 0.0 3.0 NNW 0.00 30.241
09/05/2004 9:30 p 63.3 63.3 63.3 63.4 63.2 71 53.7 0.0 2.0 NNW 0.00 30.235
09/05/2004 10:00 p 62.9 62.9 62.9 63.2 62.6 72 53.7 0.0 2.0 N 0.00 30.233
09/05/2004 10:30 p 62.3 62.3 62.3 62.6 62.0 74 53.9 0.0 2.0 ENE 0.00 30.226
09/05/2004 11:00 p 61.6 61.6 61.6 62.0 61.3 76 54.0 0.0 1.0 --- 0.00 30.221
09/05/2004 11:30 p 61.2 61.2 61.2 61.3 61.1 77 53.9 0.0 1.0 --- 0.00 30.232
09/06/2004 12:00 a 61.5 61.5 61.5 61.6 61.3 78 54.6 0.0 2.0 ENE 0.00 30.231
09/06/2004 12:30 a 61.4 61.4 61.4 61.5 61.2 78 54.5 0.0 2.0 E 0.00 30.231
09/06/2004 1:00 a 60.9 60.9 60.9 61.2 60.7 80 54.7 0.0 1.0 --- 0.00 30.229
09/06/2004 1:30 a 60.6 60.6 60.6 60.8 60.4 81 54.7 0.0 0.0 --- 0.00 30.222
09/06/2004 2:00 a 60.9 60.9 60.9 61.1 60.8 79 54.4 0.0 2.0 ESE 0.00 30.210
09/06/2004 2:30 a 60.8 60.8 60.8 61.1 60.5 80 54.6 0.0 2.0 ESE 0.00 30.203
09/06/2004 3:00 a 60.2 60.2 60.2 60.6 59.8 81 54.4 0.0 1.0 SE 0.00 30.188
09/06/2004 3:30 a 59.3 59.3 59.3 59.8 58.8 85 54.8 0.0 1.0 --- 0.00 30.183
09/06/2004 4:00 a 58.4 58.4 58.4 58.8 58.1 87 54.6 0.0 0.0 --- 0.00 30.172
09/06/2004 4:30 a 57.9 57.9 57.9 58.1 57.5 88 54.4 0.0 1.0 --- 0.00 30.168
09/06/2004 5:00 a 57.3 57.3 57.3 57.5 57.2 89 54.1 0.0 0.0 --- 0.00 30.168
09/06/2004 5:30 a 57.6 57.6 57.6 58.1 57.3 88 54.1 0.0 0.0 --- 0.00 30.176
09/06/2004 6:00 a 58.3 58.3 58.3 58.4 58.1 87 54.5 0.0 0.0 --- 0.00 30.182
09/06/2004 6:30 a 58.3 58.3 58.3 58.4 58.2 87 54.5 0.0 0.0 --- 0.00 30.186
09/06/2004 7:00 a 58.3 58.3 58.3 58.7 58.1 85 53.8 0.0 0.0 --- 0.00 30.198
09/06/2004 7:30 a 59.5 59.5 59.5 60.0 58.7 82 54.0 0.0 1.0 --- 0.00 30.204
09/06/2004 8:00 a 60.0 60.0 60.0 60.5 59.8 82 54.5 0.0 1.0 --- 0.00 30.210
09/06/2004 8:30 a 61.2 61.2 61.2 62.5 60.5 79 54.6 0.0 1.0 --- 0.00 30.211
09/06/2004 9:00 a 64.9 64.9 64.9 67.0 62.5 72 55.7 0.0 2.0 SE 0.00 30.213
09/06/2004 9:30 a 65.6 65.6 65.6 66.9 65.0 77 58.2 0.0 2.0 SE 0.00 30.219
09/06/2004 10:00 a 67.1 67.1 67.1 68.0 65.8 74 58.5 0.0 2.0 ESE 0.00 30.214
09/06/2004 10:30 a 67.6 67.6 67.6 68.1 67.0 74 59.0 0.0 2.0 NNW 0.00 30.198
09/06/2004 11:00 a 69.6 68.9 68.9 69.5 67.9 73 59.9 0.0 3.0 NNW 0.00 30.181
09/06/2004 11:30 a 70.2 69.9 69.9 70.2 69.5 71 60.1 0.0 3.0 NNW 0.00 30.178
09/06/2004 12:00 p 71.0 70.6 70.6 71.0 70.1 66 58.7 0.0 2.0 NW 0.00 30.168
09/06/2004 12:30 p 72.0 72.1 72.1 73.0 71.0 63 58.8 0.0 3.0 N 0.00 30.154
09/06/2004 1:00 p 76.0 76.1 76.1 78.9 72.7 55 58.8 0.0 3.0 NW 0.00 30.146
09/06/2004 1:30 p 81.0 81.2 81.2 83.6 76.8 50 60.8 1.0 6.0 N 0.00 30.138
09/06/2004 2:00 p 82.4 80.9 80.9 84.4 75.2 57 64.3 1.0 5.0 NNW 0.00 30.127
09/06/2004 2:30 p 74.2 74.3 74.3 75.6 73.2 61 60.0 1.0 4.0 NNW 0.00 30.117
09/06/2004 3:00 p 75.4 73.7 73.7 75.6 72.2 67 62.1 1.0 4.0 NNW 0.00 30.105
09/06/2004 3:30 p 73.7 73.0 73.0 73.4 72.5 67 61.4 1.0 3.0 N 0.00 30.097
09/06/2004 4:00 p 73.9 73.0 73.0 73.5 72.4 69 62.2 1.0 3.0 NNW 0.00 30.090
09/06/2004 4:30 p 74.0 72.6 72.6 72.8 72.3 70 62.3 1.0 3.0 NNW 0.00 30.083
09/06/2004 5:00 p 72.8 71.7 71.7 72.3 71.4 74 63.0 0.0 3.0 NNW 0.00 30.077
09/06/2004 5:30 p 71.8 71.3 71.3 71.9 71.0 74 62.6 0.0 3.0 NNW 0.00 30.074
09/06/2004 6:00 p 72.6 70.6 70.6 71.1 70.1 78 63.4 0.0 3.0 NNW 0.00 30.072
09/06/2004 6:30 p 72.0 69.6 69.6 70.1 69.0 81 63.5 0.0 3.0 NNW 0.00 30.066
09/06/2004 7:00 p 71.0 68.6 68.6 69.0 68.4 83 63.2 0.0 3.0 NNW 0.00 30.069
09/06/2004 7:30 p 71.0 68.5 68.5 68.6 68.4 83 63.1 0.0 1.0 NNW 0.00 30.064
09/06/2004 8:00 p 71.0 68.6 68.6 68.7 68.6 84 63.6 0.0 2.0 NNW 0.00 30.071
09/06/2004 8:30 p 71.0 68.6 68.6 68.6 68.5 85 63.9 0.0 0.0 --- 0.00 30.069
09/06/2004 9:00 p 71.0 68.5 68.5 68.6 68.5 87 64.5 0.0 1.0 --- 0.00 30.072
09/06/2004 9:30 p 71.0 68.6 68.6 68.7 68.5 88 64.9 0.0 1.0 NNW 0.00 30.070
09/06/2004 10:00 p 71.0 68.5 68.5 68.6 68.3 89 65.1 0.0 1.0 NNW 0.00 30.062
09/06/2004 10:30 p 67.7 67.7 67.7 68.3 67.2 93 65.6 0.0 0.0 --- 0.00 30.062
09/06/2004 11:00 p 67.4 67.4 67.4 67.6 67.3 93 65.3 0.0 0.0 --- 0.00 30.055
09/06/2004 11:30 p 67.7 67.7 67.7 67.7 67.6 93 65.6 0.0 0.0 --- 0.00 30.053
09/07/2004 12:00 a 67.5 67.5 67.5 67.6 67.4 94 65.7 0.0 0.0 --- 0.00 30.044
09/07/2004 12:30 a 67.4 67.4 67.4 67.5 67.4 94 65.6 0.0 0.0 --- 0.00 30.036
09/07/2004 1:00 a 66.9 66.9 66.9 67.4 66.3 97 66.0 0.0 0.0 --- 0.00 30.029
09/07/2004 1:30 a 66.1 66.1 66.1 66.3 66.0 100 66.1 0.0 0.0 --- 0.00 30.020
09/07/2004 2:00 a 66.5 66.5 66.5 66.6 66.3 100 66.5 0.0 0.0 --- 0.00 30.011
09/07/2004 2:30 a 66.4 66.4 66.4 66.6 66.2 100 66.4 0.0 0.0 --- 0.00 30.005
09/07/2004 3:00 a 65.7 65.7 65.7 66.2 65.5 100 65.7 0.0 0.0 --- 0.00 30.002
09/07/2004 3:30 a 65.5 65.5 65.5 65.9 65.3 100 65.5 0.0 0.0 --- 0.00 29.995
09/07/2004 4:00 a 66.3 66.3 66.3 66.6 65.9 97 65.4 0.0 0.0 --- 0.00 29.989
09/07/2004 4:30 a 66.8 66.8 66.8 66.9 66.6 94 65.0 0.0 0.0 --- 0.00 29.980
09/07/2004 5:00 a 66.8 66.8 66.8 66.8 66.6 94 65.0 0.0 0.0 --- 0.00 29.980
09/07/2004 5:30 a 66.8 66.8 66.8 66.9 66.7 93 64.7 0.0 0.0 --- 0.00 29.984
09/07/2004 6:00 a 66.7 66.7 66.7 66.9 66.5 93 64.6 0.0 0.0 --- 0.00 29.988
09/07/2004 6:30 a 66.6 66.6 66.6 66.6 66.4 96 65.4 0.0 0.0 --- 0.00 29.988
09/07/2004 7:00 a 66.4 66.4 66.4 66.5 66.3 96 65.2 0.0 0.0 --- 0.00 29.988
09/07/2004 7:30 a 66.8 66.8 66.8 67.0 66.5 94 65.0 0.0 0.0 --- 0.00 29.988
09/07/2004 8:00 a 67.4 67.4 67.4 68.0 66.9 93 65.3 0.0 0.0 --- 0.00 29.988
09/07/2004 8:30 a 67.9 67.9 67.9 68.0 67.6 100 67.9 0.0 0.0 --- 0.00 29.981
09/07/2004 9:00 a 67.6 67.6 67.6 67.7 67.5 100 67.6 0.0 0.0 --- 0.00 29.980
09/07/2004 9:30 a 67.9 67.9 67.9 68.5 67.6 100 67.9 0.0 0.0 --- 0.00 29.974
09/07/2004 10:00 a 72.0 68.8 68.8 69.6 68.5 100 68.8 0.0 0.0 --- 0.00 29.965
09/07/2004 10:30 a 73.6 70.8 70.8 71.6 69.7 93 68.7 0.0 0.0 --- 0.00 29.962
09/07/2004 11:00 a 74.4 71.8 71.8 72.3 71.4 92 69.4 0.0 1.0 --- 0.00 29.964
09/07/2004 11:30 a 74.0 72.2 72.2 72.5 72.0 90 69.1 0.0 1.0 NNW 0.00 29.964
09/07/2004 12:00 p 74.0 72.0 72.0 72.2 71.9 89 68.6 0.0 0.0 --- 0.00 29.959
09/07/2004 12:30 p 75.0 73.0 73.0 74.1 72.2 84 67.9 0.0 0.0 --- 0.00 29.957
09/07/2004 1:00 p 78.7 78.4 78.4 86.4 74.1 57 61.9 0.0 2.0 NNW 0.00 29.949
09/07/2004 1:30 p 85.0 83.2 83.2 87.9 79.9 59 67.4 0.0 2.0 E 0.00 29.949
09/07/2004 2:00 p 91.4 86.3 86.3 90.4 82.1 61 71.3 0.0 2.0 E 0.00 29.942
09/07/2004 2:30 p 81.0 79.4 79.4 82.1 77.9 67 67.5 0.0 1.0 --- 0.00 29.936
09/07/2004 3:00 p 83.8 80.7 80.7 81.1 79.5 64 67.4 0.0 3.0 E 0.00 29.926
09/07/2004 3:30 p 84.0 81.2 81.2 81.5 80.0 65 68.3 0.0 1.0 --- 0.00 29.917
09/07/2004 4:00 p 82.4 79.6 79.6 80.2 78.7 64 66.4 0.0 1.0 E 0.00 29.908
09/07/2004 4:30 p 81.0 79.4 79.4 79.7 79.0 66 67.1 0.0 0.0 --- 0.00 29.897
09/07/2004 5:00 p 82.0 80.2 80.2 80.7 79.7 60 65.1 0.0 2.0 N 0.00 29.894
09/07/2004 5:30 p 83.0 79.7 79.7 80.5 78.8 70 69.1 0.0 2.0 N 0.00 29.899
09/07/2004 6:00 p 80.6 77.8 77.8 78.7 76.9 73 68.5 0.0 2.0 N 0.00 29.904
09/07/2004 6:30 p 78.8 76.1 76.1 76.9 75.4 78 68.7 0.0 2.0 N 0.00 29.906
09/07/2004 7:00 p 77.0 75.1 75.1 75.4 74.6 80 68.5 0.0 1.0 --- 0.00 29.913
09/07/2004 7:30 p 76.0 73.9 73.9 74.6 72.9 85 69.1 0.0 0.0 --- 0.00 29.913
09/07/2004 8:00 p 74.0 72.0 72.0 72.9 71.4 90 68.9 0.0 0.0 --- 0.00 29.917
09/07/2004 8:30 p 74.0 71.1 71.1 71.4 70.7 95 69.6 0.0 0.0 --- 0.00 29.927
09/07/2004 9:00 p 74.0 70.5 70.5 70.8 70.0 95 69.0 0.0 0.0 --- 0.00 29.936
09/07/2004 9:30 p 73.8 69.7 69.7 70.0 69.3 99 69.4 0.0 0.0 --- 0.00 29.941
09/07/2004 10:00 p 72.0 69.3 69.3 69.4 69.2 100 69.3 0.0 0.0 --- 0.00 29.940
09/07/2004 10:30 p 72.0 69.2 69.2 69.4 69.1 100 69.2 0.0 0.0 --- 0.00 29.934
09/07/2004 11:00 p 72.0 69.0 69.0 69.1 68.9 100 69.0 0.0 0.0 --- 0.00 29.927
09/07/2004 11:30 p 74.0 69.5 69.5 69.7 69.0 100 69.5 0.0 0.0 --- 0.00 29.927
09/08/2004 12:00 a 72.0 69.4 69.4 69.6 69.3 100 69.4 0.0 0.0 --- 0.00 29.921
09/08/2004 12:30 a 72.0 69.3 69.3 69.6 69.2 100 69.3 0.0 0.0 --- 0.00 29.913
09/08/2004 1:00 a 74.0 69.7 69.7 69.8 69.6 100 69.7 0.0 0.0 --- 0.00 29.907
09/08/2004 1:30 a 74.0 69.5 69.5 69.8 69.3 100 69.5 0.0 0.0 --- 0.00 29.905
09/08/2004 2:00 a 74.0 69.6 69.6 69.8 69.2 100 69.6 0.0 0.0 --- 0.00 29.893
09/08/2004 2:30 a 72.0 69.4 69.4 69.9 69.1 100 69.4 0.0 0.0 --- 0.00 29.903
09/08/2004 3:00 a 74.0 69.8 69.8 70.0 69.6 100 69.8 0.0 0.0 --- 0.00 29.901
09/08/2004 3:30 a 74.0 70.0 70.0 70.1 69.9 100 70.0 0.0 0.0 --- 0.00 29.902
09/08/2004 4:00 a 74.0 70.1 70.1 70.3 69.9 100 70.1 0.0 0.0 --- 0.00 29.897
09/08/2004 4:30 a 74.0 70.2 70.2 70.3 70.1 100 70.2 0.0 0.0 --- 0.00 29.895
09/08/2004 5:00 a 74.0 69.9 69.9 70.1 69.8 100 69.9 0.0 0.0 --- 0.00 29.898
09/08/2004 5:30 a 74.0 69.6 69.6 69.8 69.5 100 69.6 0.0 0.0 --- 0.46 29.891
09/08/2004 6:00 a 74.0 69.5 69.5 69.6 69.5 100 69.5 0.0 0.0 --- 0.06 29.889
09/08/2004 6:30 a 74.0 69.7 69.7 69.9 69.5 100 69.7 0.0 0.0 --- 0.09 29.892
09/08/2004 7:00 a 74.0 70.0 70.0 70.1 69.9 100 70.0 0.0 0.0 --- 0.10 29.896
09/08/2004 7:30 a 74.0 70.2 70.2 70.3 70.1 100 70.2 0.0 0.0 --- 0.01 29.900
09/08/2004 8:00 a 75.0 70.6 70.6 71.0 70.3 100 70.6 0.0 0.0 --- 0.02 29.909
09/08/2004 8:30 a 75.0 71.3 71.3 71.4 71.0 100 71.3 0.0 0.0 --- 0.00 29.902
09/08/2004 9:00 a 75.0 71.3 71.3 71.6 71.2 100 71.3 0.0 0.0 --- 0.02 29.906
09/08/2004 9:30 a 76.0 71.9 71.9 72.5 71.6 100 71.9 0.0 0.0 --- 0.01 29.905
09/08/2004 10:00 a 77.0 72.8 72.8 74.2 72.3 100 72.8 0.0 0.0 --- 0.00 29.898
09/08/2004 10:30 a 78.0 73.8 73.8 74.3 73.0 100 73.8 0.0 0.0 --- 0.00 29.895
09/08/2004 11:00 a 78.0 73.9 73.9 74.9 73.0 100 73.9 0.0 0.0 --- 0.00 29.892
09/08/2004 11:30 a 80.0 75.7 75.7 76.2 74.9 100 75.7 0.0 0.0 --- 0.00 29.888
09/08/2004 12:00 p 82.0 77.0 77.0 77.6 76.1 100 77.0 0.0 3.0 N 0.00 29.884
09/08/2004 12:30 p 84.0 77.6 77.6 77.9 77.3 100 77.6 1.0 4.0 NW 0.00 29.879
09/08/2004 1:00 p 82.0 77.3 77.3 77.6 77.0 100 77.3 1.0 3.0 NNW 0.00 29.877
09/08/2004 1:30 p 80.0 76.3 76.3 77.5 75.9 100 76.3 1.0 3.0 NNW 0.00 29.867
09/08/2004 2:00 p 82.0 76.7 76.7 77.0 76.4 100 76.7 1.0 4.0 NNW 0.00 29.858
09/08/2004 2:30 p 84.0 77.7 77.7 78.3 76.8 100 77.7 1.0 3.0 NNW 0.00 29.850
09/08/2004 3:00 p 83.7 77.7 77.7 78.7 77.1 97 76.8 1.0 4.0 NNW 0.00 29.853
09/08/2004 3:30 p 79.0 75.4 75.4 77.4 73.9 100 75.4 1.0 4.0 NW 0.00 29.851
09/08/2004 4:00 p 78.0 73.5 73.5 73.9 73.1 100 73.5 0.0 3.0 NNW 0.00 29.850
09/08/2004 4:30 p 77.0 72.7 72.7 73.1 72.4 100 72.7 0.0 3.0 NNW 0.00 29.848
09/08/2004 5:00 p 77.0 72.9 72.9 73.3 72.5 100 72.9 0.0 4.0 NNW 0.00 29.849
09/08/2004 5:30 p 78.0 73.5 73.5 73.6 73.3 100 73.5 0.0 3.0 NW 0.00 29.851
09/08/2004 6:00 p 77.0 73.1 73.1 73.5 72.7 100 73.1 1.0 4.0 NNW 0.00 29.856
09/08/2004 6:30 p 76.0 72.2 72.2 72.7 71.7 100 72.2 0.0 3.0 NNW 0.00 29.851
09/08/2004 7:00 p 76.0 71.6 71.6 71.7 71.6 100 71.6 0.0 3.0 NNW 0.01 29.853
09/08/2004 7:30 p 76.0 71.6 71.6 71.7 71.6 100 71.6 0.0 2.0 NNW 0.00 29.851
09/08/2004 8:00 p 76.0 71.7 71.7 71.7 71.6 100 71.7 0.0 2.0 NNW 0.01 29.852
09/08/2004 8:30 p 76.0 71.7 71.7 71.8 71.6 100 71.7 0.0 2.0 NNW 0.00 29.857
09/08/2004 9:00 p 76.0 71.9 71.9 71.9 71.8 100 71.9 0.0 3.0 NNW 0.00 29.864
09/08/2004 9:30 p 76.0 71.9 71.9 71.9 71.9 100 71.9 0.0 3.0 N 0.00 29.864
09/08/2004 10:00 p 76.0 71.9 71.9 72.0 71.9 100 71.9 0.0 2.0 N 0.00 29.866
09/08/2004 10:30 p 76.0 71.7 71.7 71.9 71.5 100 71.7 0.0 2.0 N 0.00 29.858
09/08/2004 11:00 p 75.0 70.9 70.9 71.5 70.2 100 70.9 0.0 4.0 NW 0.00 29.857
09/08/2004 11:30 p 74.0 70.0 70.0 70.2 70.0 100 70.0 0.0 2.0 NNW 0.00 29.849
09/09/2004 12:00 a 74.0 70.0 70.0 70.1 70.0 100 70.0 0.0 2.0 NNW 0.00 29.840
09/09/2004 12:30 a 74.0 70.3 70.3 70.6 70.0 100 70.3 0.0 2.0 NNW 0.00 29.827
09/09/2004 1:00 a 75.0 70.6 70.6 70.7 70.6 100 70.6 0.0 2.0 NNW 0.00 29.811
09/09/2004 1:30 a 75.0 70.7 70.7 71.0 70.5 100 70.7 0.0 1.0 SE 0.00 29.799
09/09/2004 2:00 a 76.0 71.5 71.5 72.0 71.0 100 71.5 0.0 2.0 SE 0.03 29.791
09/09/2004 2:30 a 76.0 72.2 72.2 72.3 72.0 100 72.2 0.0 3.0 NNW 0.01 29.775
09/09/2004 3:00 a 76.0 72.4 72.4 72.5 72.3 100 72.4 0.0 2.0 NNW 0.00 29.769
09/09/2004 3:30 a 77.0 72.5 72.5 72.5 72.4 100 72.5 0.0 2.0 NNW 0.00 29.753
09/09/2004 4:00 a 77.0 72.6 72.6 72.7 72.5 100 72.6 0.0 3.0 NNW 0.01 29.749
09/09/2004 4:30 a 77.0 72.8 72.8 73.0 72.7 100 72.8 0.0 2.0 NNW 0.00 29.742
09/09/2004 5:00 a 77.0 73.2 73.2 73.4 73.0 100 73.2 1.0 3.0 WNW 0.00 29.739
09/09/2004 5:30 a 77.0 73.4 73.4 73.4 73.3 100 73.4 0.0 3.0 WNW 0.04 29.737
09/09/2004 6:00 a 77.0 73.2 73.2 73.3 73.1 100 73.2 0.0 2.0 N 0.00 29.722
09/09/2004 6:30 a 77.0 73.0 73.0 73.1 73.0 100 73.0 0.0 3.0 NNW 0.00 29.727
09/09/2004 7:00 a 77.0 73.3 73.3 73.6 73.1 100 73.3 0.0 3.0 NNW 0.00 29.732
09/09/2004 7:30 a 78.0 73.8 73.8 74.0 73.6 100 73.8 1.0 4.0 N 0.00 29.728
09/09/2004 8:00 a 78.0 74.4 74.4 74.6 74.0 100 74.4 1.0 4.0 NNW 0.00 29.720
09/09/2004 8:30 a 79.0 74.7 74.7 74.9 74.6 100 74.7 1.0 4.0 N 0.00 29.709
09/09/2004 9:00 a 79.0 75.3 75.3 75.4 74.9 100 75.3 1.0 4.0 NNW 0.00 29.707
09/09/2004 9:30 a 80.0 75.6 75.6 75.9 75.4 100 75.6 1.0 3.0 N 0.00 29.708
09/09/2004 10:00 a 82.0 76.5 76.5 77.0 75.9 100 76.5 1.0 8.0 NNW 0.00 29.703
09/09/2004 10:30 a 84.0 77.5 77.5 77.8 77.0 100 77.5 1.0 4.0 N 0.00 29.698
09/09/2004 11:00 a 87.0 78.8 78.8 79.9 77.8 100 78.8 1.0 6.0 NW 0.00 29.692
09/09/2004 11:30 a 89.7 79.8 79.8 80.3 79.5 99 79.5 1.0 4.0 N 0.00 29.678
09/09/2004 12:00 p 90.0 79.5 79.5 80.9 77.0 100 79.5 1.0 7.0 N 0.01 29.675
09/09/2004 12:30 p 87.0 78.7 78.7 81.0 77.0 100 78.7 1.0 6.0 N 0.00 29.665
09/09/2004 1:00 p 93.0 81.2 81.2 82.4 78.9 100 81.2 1.0 5.0 N 0.00 29.654
09/09/2004 1:30 p 99.0 84.2 84.2 88.6 78.9 92 81.6 1.0 5.0 NW 0.00 29.649
09/09/2004 2:00 p 110.1 87.0 87.0 89.6 84.0 91 84.1 1.0 7.0 N 0.00 29.640
09/09/2004 2:30 p 92.4 82.2 82.2 84.0 81.3 91 79.3 1.0 4.0 N 0.00 29.628
09/09/2004 3:00 p 90.0 80.1 80.1 82.4 78.6 100 80.1 1.0 5.0 NNW 0.02 29.629
09/09/2004 3:30 p 93.0 80.6 80.6 81.3 79.7 100 80.6 0.0 3.0 NW 0.00 29.625
09/09/2004 4:00 p 87.0 79.3 79.3 79.8 78.8 100 79.3 0.0 3.0 NNW 0.00 29.621
09/09/2004 4:30 p 80.0 76.2 76.2 78.8 74.5 100 76.2 0.0 4.0 NW 0.23 29.628
09/09/2004 5:00 p 80.0 76.2 76.2 77.1 75.2 100 76.2 0.0 3.0 S 0.00 29.628
09/09/2004 5:30 p 82.0 76.6 76.6 77.1 76.2 100 76.6 0.0 4.0 WNW 0.00 29.632
09/09/2004 6:00 p 80.0 75.9 75.9 76.2 75.6 100 75.9 0.0 5.0 N 0.00 29.636
09/09/2004 6:30 p 80.0 75.5 75.5 75.7 75.4 100 75.5 0.0 4.0 S 0.00 29.644
09/09/2004 7:00 p 79.0 75.4 75.4 75.7 74.6 100 75.4 0.0 3.0 SSW 0.00 29.667
09/09/2004 7:30 p 78.0 73.6 73.6 74.6 73.0 100 73.6 0.0 2.0 SSW 0.00 29.670
09/09/2004 8:00 p 77.0 72.8 72.8 73.0 72.5 100 72.8 0.0 2.0 SSW 0.00 29.688
09/09/2004 8:30 p 76.0 72.4 72.4 72.5 72.2 100 72.4 0.0 0.0 --- 0.00 29.703
09/09/2004 9:00 p 76.0 72.1 72.1 72.3 72.0 100 72.1 0.0 0.0 --- 0.00 29.710
09/09/2004 9:30 p 76.0 71.5 71.5 72.0 70.9 100 71.5 0.0 2.0 E 0.00 29.723
09/09/2004 10:00 p 74.0 70.3 70.3 70.9 69.9 100 70.3 0.0 3.0 SSW 0.01 29.737
09/09/2004 10:30 p 73.4 69.9 69.9 70.1 69.6 97 69.0 0.0 2.0 NNW 0.00 29.750
09/09/2004 11:00 p 70.0 68.4 68.4 69.6 67.4 99 68.1 0.0 4.0 S 0.00 29.769
09/09/2004 11:30 p 67.9 67.9 67.9 68.0 67.5 93 65.8 0.0 3.0 NE 0.00 29.784
09/10/2004 12:00 a 70.0 68.0 68.0 68.1 67.9 90 65.0 0.0 2.0 NE 0.00 29.790
09/10/2004 12:30 a 67.7 67.7 67.7 67.9 67.6 91 65.0 0.0 1.0 --- 0.00 29.798
09/10/2004 1:00 a 67.3 67.3 67.3 67.7 66.8 91 64.6 0.0 1.0 NE 0.00 29.809
09/10/2004 1:30 a 66.8 66.8 66.8 67.4 66.6 85 62.2 0.0 2.0 SE 0.00 29.823
09/10/2004 2:00 a 67.5 67.5 67.5 67.6 67.4 85 62.8 0.0 2.0 NE 0.00 29.827
09/10/2004 2:30 a 67.5 67.5 67.5 67.6 67.4 82 61.8 0.0 2.0 NW 0.00 29.830
09/10/2004 3:00 a 67.7 67.7 67.7 67.8 67.6 80 61.3 0.0 3.0 ESE 0.00 29.838
09/10/2004 3:30 a 67.2 67.2 67.2 67.6 67.0 82 61.5 0.0 1.0 --- 0.00 29.845
09/10/2004 4:00 a 66.7 66.7 66.7 67.0 66.3 85 62.1 0.0 0.0 --- 0.00 29.854
09/10/2004 4:30 a 65.5 65.5 65.5 66.3 64.8 87 61.5 0.0 0.0 --- 0.00 29.863
09/10/2004 5:00 a 64.2 64.2 64.2 64.8 63.5 91 61.5 0.0 0.0 --- 0.00 29.872
09/10/2004 5:30 a 63.1 63.1 63.1 63.5 62.6 94 61.3 0.0 0.0 --- 0.00 29.884
09/10/2004 6:00 a 61.8 61.8 61.8 62.6 61.1 100 61.8 0.0 0.0 --- 0.00 29.898
09/10/2004 6:30 a 60.7 60.7 60.7 61.1 60.6 100 60.7 0.0 0.0 --- 0.00 29.908
09/10/2004 7:00 a 60.9 60.9 60.9 61.2 60.7 100 60.9 0.0 0.0 --- 0.00 29.923
09/10/2004 7:30 a 61.5 61.5 61.5 62.2 61.1 100 61.5 0.0 0.0 --- 0.00 29.936
09/10/2004 8:00 a 62.7 62.7 62.7 63.5 62.2 95 61.3 0.0 0.0 --- 0.00 29.945
09/10/2004 8:30 a 64.9 64.9 64.9 65.7 63.5 89 61.6 0.0 1.0 E 0.00 29.952
09/10/2004 9:00 a 67.4 67.4 67.4 68.8 65.7 81 61.4 0.0 2.0 E 0.00 29.963
09/10/2004 9:30 a 71.2 69.5 69.5 70.1 68.8 76 61.6 0.0 3.0 ESE 0.00 29.968
09/10/2004 10:00 a 71.8 70.9 70.9 71.5 70.1 74 62.2 0.0 3.0 ESE 0.00 29.968
09/10/2004 10:30 a 72.2 71.5 71.5 71.9 71.2 71 61.6 0.0 5.0 ESE 0.00 29.969
09/10/2004 11:00 a 74.0 72.5 72.5 73.0 71.9 70 62.2 1.0 3.0 SE 0.00 29.970
09/10/2004 11:30 a 74.8 73.5 73.5 74.1 73.0 64 60.6 1.0 3.0 ESE 0.00 29.972
09/10/2004 12:00 p 75.4 74.7 74.7 75.1 74.1 62 60.8 0.0 4.0 ESE 0.00 29.968
09/10/2004 12:30 p 76.0 76.1 76.1 80.0 75.0 55 58.8 0.0 3.0 ESE 0.00 29.968
09/10/2004 1:00 p 88.2 88.9 88.9 91.8 80.1 34 56.9 1.0 3.0 SE 0.00 29.967
09/10/2004 1:30 p 96.0 93.5 93.5 95.0 91.2 35 61.8 0.0 4.0 SE 0.00 29.962
09/10/2004 2:00 p 90.0 86.9 86.9 91.8 81.3 50 66.0 1.0 3.0 ESE 0.00 29.958
09/10/2004 2:30 p 80.0 80.4 80.4 81.3 80.0 50 60.1 1.0 4.0 SE 0.00 29.956
09/10/2004 3:00 p 80.2 80.1 80.1 80.4 79.8 51 60.4 1.0 4.0 ESE 0.00 29.956
09/10/2004 3:30 p 80.2 80.3 80.3 80.5 80.2 51 60.5 0.0 2.0 SE 0.00 29.956
09/10/2004 4:00 p 80.2 80.0 80.0 80.2 79.9 51 60.3 0.0 4.0 ESE 0.00 29.954
09/10/2004 4:30 p 80.4 79.6 79.6 79.9 79.3 52 60.4 0.0 4.0 SE 0.00 29.957
09/10/2004 5:00 p 79.8 78.6 78.6 79.3 77.6 54 60.6 0.0 3.0 ESE 0.00 29.960
09/10/2004 5:30 p 77.0 76.9 76.9 77.6 76.1 59 61.5 0.0 3.0 ESE 0.00 29.968
09/10/2004 6:00 p 76.0 76.0 76.0 76.2 75.6 58 60.2 0.0 2.0 ESE 0.00 29.974
09/10/2004 6:30 p 75.8 74.7 74.7 75.6 73.9 64 61.7 0.0 1.0 ESE 0.00 29.978
09/10/2004 7:00 p 74.1 72.7 72.7 73.9 71.1 71 62.8 0.0 0.0 --- 0.00 29.985
09/10/2004 7:30 p 71.8 69.6 69.6 71.1 68.1 79 62.8 0.0 0.0 --- 0.00 29.990
09/10/2004 8:00 p 67.0 67.0 67.0 68.1 66.1 83 61.7 0.0 0.0 --- 0.00 30.001
09/10/2004 8:30 p 65.9 65.9 65.9 66.1 65.4 87 61.9 0.0 0.0 --- 0.00 30.014
09/10/2004 9:00 p 64.8 64.8 64.8 65.4 64.2 88 61.2 0.0 0.0 --- 0.00 30.024
09/10/2004 9:30 p 63.7 63.7 63.7 64.2 63.2 92 61.3 0.0 0.0 --- 0.00 30.032
09/10/2004 10:00 p 62.9 62.9 62.9 63.2 62.6 94 61.2 0.0 0.0 --- 0.00 30.040
09/10/2004 10:30 p 62.3 62.3 62.3 62.6 62.1 94 60.6 0.0 0.0 --- 0.00 30.044
09/10/2004 11:00 p 63.9 63.9 63.9 65.7 62.2 80 57.6 0.0 0.0 --- 0.00 30.054
09/10/2004 11:30 p 66.0 66.0 66.0 66.2 65.7 79 59.3 0.0 0.0 --- 0.00 30.057
09/11/2004 12:00 a 65.9 65.9 65.9 66.1 65.4 81 59.9 0.0 0.0 --- 0.00 30.062
09/11/2004 12:30 a 64.7 64.7 64.7 65.4 64.4 83 59.4 0.0 0.0 --- 0.00 30.067
09/11/2004 1:00 a 63.8 63.8 63.8 64.6 62.8 89 60.5 0.0 0.0 --- 0.00 30.077
09/11/2004 1:30 a 62.0 62.0 62.0 62.8 61.3 92 59.7 0.0 0.0 --- 0.00 30.073
09/11/2004 2:00 a 61.1 61.1 61.1 61.3 60.7 94 59.4 0.0 0.0 --- 0.00 30.079
09/11/2004 2:30 a 60.5 60.5 60.5 60.7 60.2 95 59.1 0.0 0.0 --- 0.00 30.078
09/11/2004 3:00 a 59.7 59.7 59.7 60.2 59.3 96 58.6 0.0 0.0 --- 0.00 30.077
09/11/2004 3:30 a 59.0 59.0 59.0 59.3 58.7 99 58.7 0.0 0.0 --- 0.00 30.079
09/11/2004 4:00 a 58.5 58.5 58.5 58.7 58.4 100 58.5 0.0 0.0 --- 0.00 30.082
09/11/2004 4:30 a 58.2 58.2 58.2 58.5 57.8 100 58.2 0.0 0.0 --- 0.00 30.094
09/11/2004 5:00 a 57.8 57.8 57.8 57.8 57.7 100 57.8 0.0 0.0 --- 0.00 30.094
09/11/2004 5:30 a 57.5 57.5 57.5 57.8 57.2 100 57.5 0.0 0.0 --- 0.00 30.102
09/11/2004 6:00 a 57.0 57.0 57.0 57.3 56.7 100 57.0 0.0 0.0 --- 0.00 30.102
09/11/2004 6:30 a 56.6 56.6 56.6 56.7 56.5 100 56.6 0.0 0.0 --- 0.00 30.105
09/11/2004 7:00 a 56.6 56.6 56.6 56.8 56.5 100 56.6 0.0 0.0 --- 0.00 30.117
09/11/2004 7:30 a 57.2 57.2 57.2 57.7 56.8 100 57.2 0.0 0.0 --- 0.00 30.129
09/11/2004 8:00 a 58.8 58.8 58.8 60.4 57.7 95 57.4 0.0 0.0 --- 0.00 30.139
09/11/2004 8:30 a 61.5 61.5 61.5 62.5 60.4 88 57.9 0.0 0.0 --- 0.00 30.144
09/11/2004 9:00 a 64.0 64.0 64.0 65.2 62.5 83 58.7 0.0 0.0 --- 0.00 30.144
09/11/2004 9:30 a 66.4 66.4 66.4 67.4 65.2 78 59.3 0.0 0.0 --- 0.00 30.149
09/11/2004 10:00 a 69.6 68.5 68.5 69.5 67.4 73 59.5 0.0 0.0 --- 0.00 30.155
09/11/2004 10:30 a 70.2 70.2 70.2 70.4 69.6 71 60.4 0.0 2.0 SE 0.00 30.152
09/11/2004 11:00 a 71.0 71.0 71.0 71.6 70.4 66 59.1 0.0 1.0 --- 0.00 30.155
09/11/2004 11:30 a 72.0 71.7 71.7 72.1 71.3 63 58.4 0.0 1.0 NNW 0.00 30.147
09/11/2004 12:00 p 73.0 72.7 72.7 74.3 71.9 60 58.0 0.0 2.0 NNE 0.00 30.138
09/11/2004 12:30 p 74.0 74.0 74.0 74.4 73.7 58 58.3 0.0 2.0 N 0.00 30.142
09/11/2004 1:00 p 74.2 74.3 74.3 75.4 73.6 61 60.0 0.0 2.0 N 0.00 30.137
09/11/2004 1:30 p 75.0 74.6 74.6 75.4 73.9 59 59.3 0.0 3.0 NNW 0.00 30.139
09/11/2004 2:00 p 74.6 73.7 73.7 74.7 72.9 63 60.3 0.0 1.0 NNW 0.00 30.132
09/11/2004 2:30 p 73.3 73.2 73.2 73.4 73.0 63 59.9 0.0 1.0 NNW 0.00 30.128
09/11/2004 3:00 p 74.4 73.8 73.8 74.3 73.4 62 60.0 0.0 1.0 NNW 0.00 30.124
09/11/2004 3:30 p 73.4 73.4 73.4 73.7 73.1 64 60.5 0.0 1.0 NNW 0.00 30.110
09/11/2004 4:00 p 73.6 72.8 72.8 73.5 72.3 66 60.8 0.0 0.0 --- 0.00 30.104
09/11/2004 4:30 p 71.0 71.3 71.3 72.3 70.5 70 61.0 0.0 0.0 --- 0.00 30.099
09/11/2004 5:00 p 70.6 70.4 70.4 70.7 70.1 73 61.3 0.0 0.0 --- 0.00 30.096
09/11/2004 5:30 p 71.0 69.8 69.8 70.1 69.5 75 61.5 0.0 0.0 --- 0.00 30.093
09/11/2004 6:00 p 69.6 69.0 69.0 69.5 68.7 73 60.0 0.0 2.0 NNW 0.00 30.095
09/11/2004 6:30 p 69.0 68.4 68.4 68.8 67.9 75 60.2 0.0 1.0 --- 0.00 30.098
09/11/2004 7:00 p 67.4 67.4 67.4 67.9 66.5 80 61.0 0.0 0.0 --- 0.00 30.102
09/11/2004 7:30 p 65.3 65.3 65.3 66.5 64.4 86 61.0 0.0 0.0 --- 0.00 30.100
09/11/2004 8:00 p 63.6 63.6 63.6 64.4 63.0 89 60.3 0.0 0.0 --- 0.00 30.101
09/11/2004 8:30 p 62.5 62.5 62.5 63.0 62.0 93 60.5 0.0 0.0 --- 0.00 30.114
09/11/2004 9:00 p 61.4 61.4 61.4 62.0 60.9 96 60.3 0.0 0.0 --- 0.00 30.118
09/11/2004 9:30 p 60.6 60.6 60.6 60.9 60.3 99 60.3 0.0 0.0 --- 0.00 30.114
09/11/2004 10:00 p 59.8 59.8 59.8 60.3 59.4 100 59.8 0.0 0.0 --- 0.00 30.119
09/11/2004 10:30 p 59.2 59.2 59.2 59.4 59.0 100 59.2 0.0 0.0 --- 0.00 30.115
09/11/2004 11:00 p 58.6 58.6 58.6 59.0 58.2 100 58.6 0.0 0.0 --- 0.00 30.109
09/11/2004 11:30 p 58.0 58.0 58.0 58.2 57.7 100 58.0 0.0 0.0 --- 0.00 30.105
09/12/2004 12:00 a 57.4 57.4 57.4 57.8 57.0 100 57.4 0.0 0.0 --- 0.00 30.095
09/12/2004 12:30 a 56.9 56.9 56.9 57.0 56.6 100 56.9 0.0 0.0 --- 0.00 30.084
09/12/2004 1:00 a 56.4 56.4 56.4 56.6 56.2 100 56.4 0.0 0.0 --- 0.00 30.082
09/12/2004 1:30 a 56.1 56.1 56.1 56.2 55.9 100 56.1 0.0 0.0 --- 0.00 30.089
09/12/2004 2:00 a 55.6 55.6 55.6 55.9 55.3 100 55.6 0.0 0.0 --- 0.00 30.088
09/12/2004 2:30 a 55.0 55.0 55.0 55.3 54.9 100 55.0 0.0 0.0 --- 0.00 30.091
09/12/2004 3:00 a 54.6 54.6 54.6 54.9 54.4 100 54.6 0.0 0.0 --- 0.00 30.085
09/12/2004 3:30 a 54.2 54.2 54.2 54.4 54.0 100 54.2 0.0 0.0 --- 0.00 30.082
09/12/2004 4:00 a 54.0 54.0 54.0 54.1 53.9 100 54.0 0.0 0.0 --- 0.00 30.075
09/12/2004 4:30 a 53.7 53.7 53.7 53.9 53.5 100 53.7 0.0 0.0 --- 0.00 30.074
09/12/2004 5:00 a 53.3 53.3 53.3 53.5 53.2 100 53.3 0.0 0.0 --- 0.00 30.075
09/12/2004 5:30 a 53.0 53.0 53.0 53.2 52.8 100 53.0 0.0 0.0 --- 0.00 30.079
09/12/2004 6:00 a 52.7 52.7 52.7 52.8 52.5 100 52.7 0.0 0.0 --- 0.00 30.072
09/12/2004 6:30 a 52.5 52.5 52.5 52.6 52.4 100 52.5 0.0 0.0 --- 0.00 30.084
09/12/2004 7:00 a 52.3 52.3 52.3 52.5 52.2 100 52.3 0.0 0.0 --- 0.00 30.089
09/12/2004 7:30 a 53.0 53.0 53.0 53.7 52.5 100 53.0 0.0 0.0 --- 0.00 30.088
09/12/2004 8:00 a 54.6 54.6 54.6 55.7 53.7 100 54.6 0.0 0.0 --- 0.00 30.094
09/12/2004 8:30 a 57.2 57.2 57.2 58.9 55.7 100 57.2 0.0 0.0 --- 0.00 30.102
09/12/2004 9:00 a 60.9 60.9 60.9 62.3 59.0 97 60.0 0.0 0.0 --- 0.00 30.102
09/12/2004 9:30 a 63.7 63.7 63.7 65.0 62.3 90 60.7 0.0 0.0 --- 0.00 30.112
09/12/2004 10:00 a 66.1 66.1 66.1 67.0 65.0 82 60.5 0.0 0.0 --- 0.00 30.115
09/12/2004 10:30 a 67.8 67.8 67.8 68.4 67.0 72 58.5 0.0 0.0 --- 0.00 30.108
09/12/2004 11:00 a 69.0 69.1 69.1 70.0 68.4 68 58.1 0.0 2.0 ESE 0.00 30.103
09/12/2004 11:30 a 71.0 70.6 70.6 71.3 70.0 64 57.8 0.0 2.0 NNE 0.00 30.092
09/12/2004 12:00 p 72.0 71.7 71.7 72.2 71.2 65 59.3 0.0 1.0 SSE 0.00 30.085
09/12/2004 12:30 p 73.2 72.8 72.8 73.7 72.2 62 59.0 0.0 1.0 ESE 0.00 30.073
09/12/2004 1:00 p 83.0 83.7 83.7 91.7 73.7 35 53.2 0.0 2.0 ESE 0.00 30.058
09/12/2004 1:30 p 92.4 91.5 91.5 92.6 90.8 32 57.5 0.0 2.0 E 0.00 30.046
09/12/2004 2:00 p 86.8 85.0 85.0 91.7 80.1 49 63.7 0.0 2.0 E 0.00 30.037
09/12/2004 2:30 p 80.4 79.6 79.6 80.1 79.2 52 60.4 0.0 3.0 SE 0.00 30.030
09/12/2004 3:00 p 79.6 79.4 79.4 79.8 79.1 53 60.8 0.0 2.0 SE 0.00 30.014
09/12/2004 3:30 p 79.8 78.7 78.7 79.3 78.2 54 60.7 0.0 2.0 ESE 0.00 30.012
09/12/2004 4:00 p 78.5 78.2 78.2 78.5 77.8 55 60.7 0.0 2.0 ESE 0.00 30.005
09/12/2004 4:30 p 78.5 77.7 77.7 78.1 77.3 55 60.3 0.0 3.0 ESE 0.00 30.002
09/12/2004 5:00 p 77.0 76.6 76.6 77.3 76.0 59 61.2 0.0 1.0 ESE 0.00 29.992
09/12/2004 5:30 p 75.6 75.1 75.1 76.0 74.3 63 61.7 0.0 1.0 --- 0.00 29.991
09/12/2004 6:00 p 75.6 73.6 73.6 74.3 72.9 68 62.4 0.0 1.0 E 0.00 29.989
09/12/2004 6:30 p 73.0 72.0 72.0 72.9 71.0 75 63.7 0.0 0.0 --- 0.00 29.985
09/12/2004 7:00 p 72.0 69.9 69.9 71.0 68.9 81 63.8 0.0 0.0 --- 0.00 29.984
09/12/2004 7:30 p 70.0 68.0 68.0 68.9 67.1 85 63.3 0.0 0.0 --- 0.00 29.990
09/12/2004 8:00 p 66.4 66.4 66.4 67.1 65.8 88 62.7 0.0 0.0 --- 0.00 29.995
09/12/2004 8:30 p 65.4 65.4 65.4 65.8 65.2 91 62.7 0.0 0.0 --- 0.00 30.000
09/12/2004 9:00 p 64.5 64.5 64.5 65.2 64.1 94 62.7 0.0 0.0 --- 0.00 30.011
09/12/2004 9:30 p 64.1 64.1 64.1 64.6 64.0 95 62.6 0.0 0.0 --- 0.00 30.018
09/12/2004 10:00 p 64.4 64.4 64.4 64.6 64.2 94 62.6 0.0 0.0 --- 0.00 30.028
09/12/2004 10:30 p 64.1 64.1 64.1 64.3 63.8 94 62.3 0.0 0.0 --- 0.00 30.033
09/12/2004 11:00 p 63.4 63.4 63.4 63.8 63.2 96 62.2 0.0 0.0 --- 0.00 30.037
09/12/2004 11:30 p 63.0 63.0 63.0 63.3 62.6 97 62.1 0.0 0.0 --- 0.00 30.037
09/13/2004 12:00 a 62.4 62.4 62.4 62.7 62.0 100 62.4 0.0 0.0 --- 0.00 30.037
09/13/2004 12:30 a 61.7 61.7 61.7 62.0 61.5 100 61.7 0.0 0.0 --- 0.00 30.034
09/13/2004 1:00 a 61.2 61.2 61.2 61.5 60.9 100 61.2 0.0 0.0 --- 0.00 30.041
09/13/2004 1:30 a 60.7 60.7 60.7 60.9 60.5 100 60.7 0.0 0.0 --- 0.00 30.039
09/13/2004 2:00 a 60.2 60.2 60.2 60.5 60.0 100 60.2 0.0 0.0 --- 0.00 30.032
09/13/2004 2:30 a 59.9 59.9 59.9 60.0 59.8 100 59.9 0.0 0.0 --- 0.00 30.033
09/13/2004 3:00 a 59.8 59.8 59.8 59.9 59.7 100 59.8 0.0 0.0 --- 0.00 30.030
09/13/2004 3:30 a 59.7 59.7 59.7 59.8 59.7 100 59.7 0.0 0.0 --- 0.00 30.027
09/13/2004 4:00 a 59.7 59.7 59.7 59.8 59.7 100 59.7 0.0 0.0 --- 0.00 30.027
09/13/2004 4:30 a 59.6 59.6 59.6 59.8 59.4 100 59.6 0.0 0.0 --- 0.00 30.024
09/13/2004 5:00 a 59.4 59.4 59.4 59.5 59.3 100 59.4 0.0 0.0 --- 0.00 30.012
09/13/2004 5:30 a 59.3 59.3 59.3 59.4 59.2 100 59.3 0.0 0.0 --- 0.00 30.015
09/13/2004 6:00 a 59.1 59.1 59.1 59.3 59.0 100 59.1 0.0 0.0 --- 0.00 30.024
09/13/2004 6:30 a 59.2 59.2 59.2 59.3 59.1 100 59.2 0.0 0.0 --- 0.00 30.032
09/13/2004 7:00 a 58.9 58.9 58.9 59.1 58.8 100 58.9 0.0 0.0 --- 0.00 30.048
09/13/2004 7:30 a 59.2 59.2 59.2 59.9 58.8 100 59.2 0.0 0.0 --- 0.00 30.053
09/13/2004 8:00 a 60.6 60.6 60.6 61.7 59.9 100 60.6 0.0 0.0 --- 0.00 30.051
09/13/2004 8:30 a 63.1 63.1 63.1 64.6 61.7 100 63.1 0.0 0.0 --- 0.00 30.052
09/13/2004 9:00 a 66.5 66.5 66.5 68.1 64.6 95 65.0 0.0 0.0 --- 0.00 30.052
09/13/2004 9:30 a 72.0 69.7 69.7 71.2 68.1 81 63.6 0.0 0.0 --- 0.00 30.053
09/13/2004 10:00 a 74.1 73.0 73.0 74.0 71.2 71 63.1 0.0 3.0 ESE 0.00 30.057
09/13/2004 10:30 a 76.0 74.3 74.3 74.7 74.0 71 64.3 0.0 0.0 --- 0.00 30.055
09/13/2004 11:00 a 76.6 75.4 75.4 76.2 74.7 68 64.1 0.0 1.0 --- 0.00 30.052
09/13/2004 11:30 a 78.4 76.7 76.7 77.1 76.2 67 64.9 0.0 1.0 --- 0.00 30.039
09/13/2004 12:00 p 79.0 77.6 77.6 78.0 77.2 60 62.6 0.0 1.0 --- 0.00 30.037
09/13/2004 12:30 p 80.4 79.0 79.0 79.6 78.0 57 62.5 0.0 2.0 ESE 0.00 30.030
09/13/2004 1:00 p 87.0 87.9 87.9 94.9 79.6 35 56.9 0.0 3.0 ENE 0.00 30.020
09/13/2004 1:30 p 96.6 95.0 95.0 97.1 92.7 34 62.3 0.0 2.0 ESE 0.00 30.010
09/13/2004 2:00 p 91.2 88.1 88.1 93.5 85.1 48 66.0 0.0 2.0 ESE 0.00 30.004
09/13/2004 2:30 p 86.1 84.2 84.2 85.1 83.6 51 64.1 0.0 2.0 ESE 0.00 29.999
09/13/2004 3:00 p 87.0 84.5 84.5 84.7 84.0 50 63.8 0.0 1.0 ESE 0.00 29.993
09/13/2004 3:30 p 85.6 84.2 84.2 84.5 83.9 48 62.4 0.0 1.0 ESE 0.00 29.986
09/13/2004 4:00 p 84.4 83.3 83.3 83.9 82.9 47 61.0 0.0 3.0 ESE 0.00 29.989
09/13/2004 4:30 p 83.0 82.4 82.4 82.9 81.7 50 61.9 0.0 2.0 ESE 0.00 29.986
09/13/2004 5:00 p 81.6 81.3 81.3 81.7 80.8 53 62.6 0.0 2.0 ESE 0.00 29.988
09/13/2004 5:30 p 82.0 80.5 80.5 80.8 79.6 55 62.9 0.0 3.0 ESE 0.00 29.992
09/13/2004 6:00 p 80.6 79.3 79.3 79.6 78.7 58 63.3 0.0 0.0 --- 0.00 29.995
09/13/2004 6:30 p 79.6 77.5 77.5 78.7 76.5 66 65.3 0.0 0.0 --- 0.00 30.003
09/13/2004 7:00 p 77.0 74.9 74.9 76.5 73.4 74 66.1 0.0 0.0 --- 0.00 30.013
09/13/2004 7:30 p 73.8 72.4 72.4 73.4 71.4 79 65.5 0.0 0.0 --- 0.00 30.018
09/13/2004 8:00 p 73.0 70.6 70.6 71.4 70.1 84 65.5 0.0 0.0 --- 0.00 30.036
09/13/2004 8:30 p 72.0 70.0 70.0 70.1 69.8 85 65.3 0.0 0.0 --- 0.00 30.051
09/13/2004 9:00 p 72.0 69.6 69.6 69.8 69.4 87 65.6 0.0 0.0 --- 0.00 30.061
09/13/2004 9:30 p 71.0 69.4 69.4 69.5 69.1 86 65.0 0.0 0.0 --- 0.00 30.074
09/13/2004 10:00 p 71.0 68.9 68.9 69.1 68.6 86 64.5 0.0 0.0 --- 0.00 30.079
09/13/2004 10:30 p 70.0 68.0 68.0 68.7 67.5 90 65.0 0.0 0.0 --- 0.00 30.092
09/13/2004 11:00 p 67.2 67.2 67.2 67.5 67.1 91 64.5 0.0 0.0 --- 0.00 30.097
09/13/2004 11:30 p 67.0 67.0 67.0 67.1 66.9 92 64.6 0.0 0.0 --- 0.00 30.098
09/14/2004 12:00 a 66.4 66.4 66.4 66.9 65.9 92 64.0 0.0 0.0 --- 0.00 30.098
09/14/2004 12:30 a 65.7 65.7 65.7 65.9 65.6 87 61.7 0.0 0.0 --- 0.00 30.096
09/14/2004 1:00 a 65.3 65.3 65.3 65.6 64.9 88 61.7 0.0 0.0 --- 0.00 30.100
09/14/2004 1:30 a 64.6 64.6 64.6 64.9 63.9 90 61.6 0.0 0.0 --- 0.00 30.096
09/14/2004 2:00 a 63.3 63.3 63.3 63.9 63.1 91 60.6 0.0 0.0 --- 0.00 30.101
09/14/2004 2:30 a 63.3 63.3 63.3 63.5 63.1 86 59.0 0.0 0.0 --- 0.00 30.101
09/14/2004 3:00 a 63.5 63.5 63.5 63.7 63.4 83 58.3 0.0 0.0 --- 0.00 30.102
09/14/2004 3:30 a 64.3 64.3 64.3 64.5 63.7 78 57.3 0.0 0.0 --- 0.00 30.104
09/14/2004 4:00 a 64.3 64.3 64.3 64.5 64.1 78 57.3 0.0 0.0 --- 0.00 30.108
09/14/2004 4:30 a 64.8 64.8 64.8 65.4 64.2 76 57.1 0.0 0.0 --- 0.00 30.114
09/14/2004 5:00 a 65.2 65.2 65.2 65.4 65.0 78 58.2 0.0 0.0 --- 0.00 30.119
09/14/2004 5:30 a 64.8 64.8 64.8 65.0 64.4 80 58.5 0.0 0.0 --- 0.00 30.120
09/14/2004 6:00 a 64.1 64.1 64.1 64.4 63.8 82 58.5 0.0 0.0 --- 0.00 30.125
09/14/2004 6:30 a 63.7 63.7 63.7 63.9 63.7 85 59.1 0.0 0.0 --- 0.00 30.139
09/14/2004 7:00 a 64.0 64.0 64.0 64.5 63.7 86 59.7 0.0 0.0 --- 0.00 30.149
09/14/2004 7:30 a 65.1 65.1 65.1 65.5 64.5 85 60.5 0.0 0.0 --- 0.00 30.163
09/14/2004 8:00 a 65.9 65.9 65.9 66.1 65.5 86 61.6 0.0 0.0 --- 0.00 30.173
09/14/2004 8:30 a 67.2 67.2 67.2 68.5 66.1 79 60.5 0.0 2.0 ESE 0.00 30.183
09/14/2004 9:00 a 70.4 69.0 69.0 69.3 68.5 77 61.5 0.0 3.0 NNE 0.00 30.191
09/14/2004 9:30 a 70.6 70.4 70.4 71.1 69.3 73 61.3 0.0 3.0 NNW 0.00 30.204
09/14/2004 10:00 a 70.2 70.3 70.3 70.7 69.9 71 60.5 0.0 3.0 N 0.00 30.216
09/14/2004 10:30 a 70.0 69.9 69.9 70.2 69.7 69 59.3 1.0 4.0 N 0.00 30.231
09/14/2004 11:00 a 71.0 70.8 70.8 71.2 70.2 67 59.3 1.0 3.0 NNW 0.00 30.238
09/14/2004 11:30 a 71.0 71.4 71.4 73.0 70.5 63 58.2 1.0 4.0 N 0.00 30.232
09/14/2004 12:00 p 72.0 72.1 72.1 73.0 71.6 65 59.7 1.0 5.0 N 0.00 30.236
09/14/2004 12:30 p 73.6 73.1 73.1 73.5 72.6 66 61.1 1.0 4.0 N 0.00 30.231
09/14/2004 1:00 p 74.0 74.4 74.4 78.8 73.0 54 56.7 1.0 4.0 NNW 0.00 30.227
09/14/2004 1:30 p 77.4 76.8 76.8 79.0 73.6 62 62.8 1.0 4.0 N 0.00 30.223
09/14/2004 2:00 p 72.0 71.6 71.6 73.5 71.0 68 60.5 1.0 4.0 NNW 0.00 30.219
09/14/2004 2:30 p 71.0 70.6 70.6 71.1 70.0 70 60.4 1.0 3.0 NNW 0.00 30.220
09/14/2004 3:00 p 70.0 70.4 70.4 70.7 70.0 69 59.8 1.0 3.0 NNW 0.00 30.212
09/14/2004 3:30 p 71.0 70.6 70.6 71.0 70.1 69 59.9 0.0 3.0 NNW 0.00 30.211
09/14/2004 4:00 p 70.0 70.1 70.1 70.5 69.8 69 59.5 0.0 3.0 NNW 0.00 30.201
09/14/2004 4:30 p 70.0 70.3 70.3 70.5 69.9 69 59.7 0.0 3.0 NNW 0.00 30.202
09/14/2004 5:00 p 70.2 69.5 69.5 70.0 69.0 71 59.7 0.0 3.0 NNW 0.00 30.196
09/14/2004 5:30 p 68.6 68.2 68.2 69.0 67.5 73 59.2 1.0 4.0 NW 0.00 30.192
09/14/2004 6:00 p 67.4 67.4 67.4 67.5 67.0 75 59.2 0.0 2.0 N 0.00 30.187
09/14/2004 6:30 p 66.5 66.5 66.5 67.0 66.1 76 58.7 0.0 2.0 N 0.00 30.189
09/14/2004 7:00 p 65.8 65.8 65.8 66.1 65.4 78 58.8 0.0 3.0 N 0.00 30.194
09/14/2004 7:30 p 65.2 65.2 65.2 65.4 65.1 78 58.2 0.0 1.0 N 0.00 30.196
09/14/2004 8:00 p 65.0 65.0 65.0 65.2 64.9 79 58.3 0.0 1.0 N 0.00 30.203
09/14/2004 8:30 p 64.9 64.9 64.9 65.0 64.7 78 57.9 0.0 3.0 N 0.00 30.209
09/14/2004 9:00 p 64.6 64.6 64.6 64.9 64.1 79 57.9 0.0 1.0 N 0.00 30.222
09/14/2004 9:30 p 63.6 63.6 63.6 64.1 63.4 79 57.0 0.0 1.0 N 0.00 30.219
09/14/2004 10:00 p 63.0 63.0 63.0 63.4 62.4 80 56.7 0.0 1.0 --- 0.00 30.208
09/14/2004 10:30 p 62.0 62.0 62.0 62.4 61.6 84 57.1 0.0 0.0 --- 0.00 30.216
09/14/2004 11:00 p 61.3 61.3 61.3 61.7 61.0 86 57.1 0.0 0.0 --- 0.00 30.217
09/14/2004 11:30 p 60.8 60.8 60.8 61.0 60.7 86 56.6 0.0 0.0 --- 0.00 30.212
09/15/2004 12:00 a 60.7 60.7 60.7 60.8 60.5 87 56.8 0.0 0.0 --- 0.00 30.203
09/15/2004 12:30 a 60.5 60.5 60.5 60.8 60.3 89 57.2 0.0 0.0 --- 0.00 30.205
09/15/2004 1:00 a 60.4 60.4 60.4 60.5 60.3 89 57.1 0.0 0.0 --- 0.00 30.197
09/15/2004 1:30 a 60.2 60.2 60.2 60.4 60.1 90 57.3 0.0 0.0 --- 0.00 30.186
09/15/2004 2:00 a 60.1 60.1 60.1 60.1 60.0 91 57.5 0.0 0.0 --- 0.00 30.180
09/15/2004 2:30 a 59.9 59.9 59.9 60.0 59.8 91 57.3 0.0 0.0 --- 0.00 30.173
09/15/2004 3:00 a 59.9 59.9 59.9 60.0 59.8 91 57.3 0.0 0.0 --- 0.00 30.167
09/15/2004 3:30 a 59.8 59.8 59.8 60.0 59.7 92 57.5 0.0 0.0 --- 0.00 30.174
09/15/2004 4:00 a 59.7 59.7 59.7 59.8 59.7 92 57.4 0.0 0.0 --- 0.00 30.164
09/15/2004 4:30 a 59.9 59.9 59.9 60.0 59.8 91 57.3 0.0 0.0 --- 0.00 30.157
09/15/2004 5:00 a 59.6 59.6 59.6 59.9 59.5 93 57.6 0.0 0.0 --- 0.00 30.156
09/15/2004 5:30 a 59.5 59.5 59.5 59.6 59.5 93 57.5 0.0 0.0 --- 0.00 30.155
09/15/2004 6:00 a 59.7 59.7 59.7 59.9 59.6 94 58.0 0.0 0.0 --- 0.00 30.157
09/15/2004 6:30 a 60.3 60.3 60.3 60.8 59.8 90 57.4 0.0 0.0 --- 0.00 30.167
09/15/2004 7:00 a 61.0 61.0 61.0 61.2 60.8 87 57.1 0.0 0.0 --- 0.00 30.177
09/15/2004 7:30 a 61.5 61.5 61.5 61.7 61.2 86 57.3 0.0 0.0 --- 0.00 30.177
09/15/2004 8:00 a 61.6 61.6 61.6 61.8 61.3 86 57.4 0.0 0.0 --- 0.00 30.180
09/15/2004 8:30 a 61.9 61.9 61.9 63.2 61.3 83 56.7 0.0 0.0 --- 0.00 30.181
09/15/2004 9:00 a 64.9 64.9 64.9 66.2 63.2 78 57.9 0.0 1.0 NNE 0.00 30.180
09/15/2004 9:30 a 67.9 67.9 67.9 70.0 66.2 74 59.3 0.0 0.0 --- 0.00 30.174
09/15/2004 10:00 a 71.6 70.5 70.5 70.7 70.0 73 61.4 0.0 1.0 NNE 0.00 30.178
09/15/2004 10:30 a 71.6 70.8 70.8 71.3 70.3 73 61.7 0.0 2.0 NNE 0.00 30.177
09/15/2004 11:00 a 72.4 71.8 71.8 72.1 71.3 72 62.3 0.0 2.0 --- 0.00 30.167
09/15/2004 11:30 a 75.6 73.6 73.6 74.6 71.9 68 62.4 0.0 3.0 NNW 0.00 30.154
09/15/2004 12:00 p 74.3 72.8 72.8 74.3 71.6 73 63.7 0.0 1.0 NNW 0.00 30.157
09/15/2004 12:30 p 73.0 71.7 71.7 72.0 71.3 75 63.4 0.0 2.0 NNW 0.00 30.146
09/15/2004 1:00 p 72.2 71.7 71.7 73.2 71.0 71 61.8 0.0 2.0 NNW 0.00 30.133
09/15/2004 1:30 p 76.0 74.2 74.2 75.2 73.2 70 63.8 0.0 2.0 N 0.00 30.117
09/15/2004 2:00 p 74.4 73.4 73.4 74.2 72.6 74 64.6 0.0 3.0 N 0.00 30.107
09/15/2004 2:30 p 74.6 72.8 72.8 73.1 72.4 76 64.8 0.0 2.0 N 0.00 30.098
09/15/2004 3:00 p 74.7 72.5 72.5 72.8 72.3 77 64.9 0.0 2.0 ENE 0.00 30.089
09/15/2004 3:30 p 73.4 71.9 71.9 72.3 71.6 77 64.3 0.0 1.0 NE 0.00 30.079
09/15/2004 4:00 p 73.8 71.9 71.9 72.1 71.5 79 65.0 0.0 2.0 NE 0.00 30.068
09/15/2004 4:30 p 73.0 70.9 70.9 71.5 70.3 84 65.8 0.0 1.0 NE 0.00 30.064
09/15/2004 5:00 p 72.0 70.4 70.4 70.6 70.2 82 64.6 0.0 2.0 NE 0.00 30.057
09/15/2004 5:30 p 72.0 70.3 70.3 70.6 70.0 84 65.2 0.0 1.0 --- 0.00 30.056
09/15/2004 6:00 p 72.0 69.9 69.9 70.0 69.7 86 65.5 0.0 1.0 ENE 0.00 30.054
09/15/2004 6:30 p 71.7 69.1 69.1 69.7 67.6 97 68.2 0.0 1.0 NE 0.00 30.056
09/15/2004 7:00 p 66.4 66.4 66.4 67.6 65.7 100 66.4 0.0 2.0 NNE 0.10 30.056
09/15/2004 7:30 p 65.4 65.4 65.4 65.7 65.3 100 65.4 0.0 1.0 NNE 0.06 30.051
09/15/2004 8:00 p 65.0 65.0 65.0 65.3 64.7 100 65.0 0.0 0.0 --- 0.04 30.053
09/15/2004 8:30 p 64.7 64.7 64.7 64.9 64.6 100 64.7 0.0 0.0 --- 0.06 30.053
09/15/2004 9:30 p 65.3 65.3 65.3 65.6 64.9 100 65.3 0.0 0.0 --- 0.01 30.042
09/15/2004 10:00 p 65.6 65.6 65.6 65.7 65.5 100 65.6 0.0 0.0 --- 0.00 30.037
09/15/2004 10:30 p 65.7 65.7 65.7 65.8 65.7 100 65.7 0.0 0.0 --- 0.00 30.025
09/15/2004 11:00 p 65.8 65.8 65.8 65.8 65.7 100 65.8 0.0 1.0 NNE 0.00 30.023
09/15/2004 11:30 p 65.8 65.8 65.8 65.8 65.7 100 65.8 0.0 0.0 --- 0.00 30.024
09/16/2004 12:00 a 65.6 65.6 65.6 65.8 65.5 100 65.6 0.0 0.0 --- 0.00 30.017
09/16/2004 12:30 a 65.5 65.5 65.5 65.6 65.5 100 65.5 0.0 0.0 --- 0.00 30.005
09/16/2004 1:00 a 65.5 65.5 65.5 65.6 65.5 100 65.5 0.0 0.0 --- 0.01 29.991
09/16/2004 1:30 a 65.5 65.5 65.5 65.5 65.5 100 65.5 0.0 0.0 --- 0.00 29.976
09/16/2004 2:00 a 65.5 65.5 65.5 65.5 65.4 100 65.5 0.0 0.0 --- 0.00 29.970
09/16/2004 2:30 a 65.5 65.5 65.5 65.5 65.4 100 65.5 0.0 0.0 --- 0.00 29.965
09/16/2004 3:00 a 65.5 65.5 65.5 65.5 65.4 100 65.5 0.0 0.0 --- 0.00 29.957
09/16/2004 3:30 a 65.5 65.5 65.5 65.5 65.5 100 65.5 0.0 0.0 --- 0.00 29.956
09/16/2004 4:00 a 65.5 65.5 65.5 65.6 65.5 100 65.5 0.0 0.0 --- 0.00 29.951
09/16/2004 4:30 a 65.5 65.5 65.5 65.6 65.5 100 65.5 0.0 0.0 --- 0.00 29.949
09/16/2004 5:00 a 65.4 65.4 65.4 65.5 65.4 100 65.4 0.0 0.0 --- 0.00 29.943
09/16/2004 5:30 a 65.4 65.4 65.4 65.4 65.3 100 65.4 0.0 0.0 --- 0.00 29.944
09/16/2004 6:00 a 65.4 65.4 65.4 65.4 65.3 100 65.4 0.0 0.0 --- 0.00 29.946
09/16/2004 6:30 a 65.4 65.4 65.4 65.4 65.4 100 65.4 0.0 0.0 --- 0.00 29.949
09/16/2004 7:00 a 65.5 65.5 65.5 65.6 65.4 100 65.5 0.0 0.0 --- 0.00 29.954
09/16/2004 7:30 a 65.7 65.7 65.7 65.8 65.5 100 65.7 0.0 0.0 --- 0.00 29.962
09/16/2004 8:00 a 65.9 65.9 65.9 66.1 65.8 100 65.9 0.0 0.0 --- 0.00 29.960
09/16/2004 8:30 a 66.5 66.5 66.5 66.8 66.1 100 66.5 0.0 0.0 --- 0.00 29.951
09/16/2004 9:00 a 67.4 67.4 67.4 68.0 66.8 100 67.4 0.0 0.0 --- 0.00 29.954
09/16/2004 9:30 a 70.0 68.3 68.3 68.7 68.0 100 68.3 0.0 0.0 --- 0.00 29.957
09/16/2004 10:00 a 72.0 69.0 69.0 69.5 68.7 100 69.0 0.0 0.0 --- 0.00 29.949
09/16/2004 10:30 a 74.0 69.5 69.5 69.6 69.3 100 69.5 0.0 0.0 --- 0.00 29.947
09/16/2004 11:00 a 74.0 69.8 69.8 70.3 69.5 100 69.8 0.0 0.0 --- 0.00 29.952
09/16/2004 11:30 a 75.0 71.3 71.3 72.2 70.3 100 71.3 0.0 0.0 --- 0.00 29.950
09/16/2004 12:00 p 76.0 71.7 71.7 72.1 71.5 100 71.7 0.0 0.0 --- 0.00 29.940
09/16/2004 12:30 p 77.0 73.3 73.3 74.4 72.1 100 73.3 0.0 0.0 --- 0.00 29.937
09/16/2004 1:00 p 78.8 75.2 75.2 75.9 74.4 98 74.6 0.0 1.0 ENE 0.00 29.932
09/16/2004 1:30 p 80.0 75.7 75.7 76.6 75.0 95 74.2 0.0 2.0 ENE 0.00 29.919
09/16/2004 2:00 p 81.4 76.7 76.7 77.0 76.5 94 74.8 0.0 2.0 SE 0.00 29.909
09/16/2004 2:30 p 80.0 76.4 76.4 77.0 75.9 92 73.9 0.0 2.0 SE 0.00 29.908
09/16/2004 3:00 p 81.0 76.5 76.5 77.5 75.9 82 70.6 0.0 2.0 E 0.00 29.898
09/16/2004 3:30 p 80.2 77.2 77.2 77.7 76.8 76 69.1 0.0 1.0 --- 0.00 29.886
09/16/2004 4:00 p 80.8 77.5 77.5 77.9 77.1 74 68.6 0.0 3.0 ENE 0.00 29.882
09/16/2004 4:30 p 79.6 76.7 76.7 77.1 76.2 73 67.4 0.0 2.0 ENE 0.00 29.876
09/16/2004 5:00 p 77.0 75.4 75.4 76.4 74.4 78 68.1 0.0 1.0 --- 0.00 29.868
09/16/2004 5:30 p 77.0 74.7 74.7 75.1 74.0 79 67.8 0.0 0.0 --- 0.00 29.859
09/16/2004 6:00 p 75.0 73.3 73.3 74.0 73.0 81 67.1 0.0 0.0 --- 0.00 29.857
09/16/2004 6:30 p 74.0 72.1 72.1 73.0 71.1 84 67.0 0.0 0.0 --- 0.00 29.847
09/16/2004 7:00 p 72.0 70.2 70.2 71.1 69.2 90 67.1 0.0 0.0 --- 0.00 29.846
09/16/2004 7:30 p 70.0 68.4 68.4 69.2 67.7 94 66.6 0.0 0.0 --- 0.00 29.847
09/16/2004 8:00 p 67.4 67.4 67.4 67.7 67.1 97 66.5 0.0 0.0 --- 0.00 29.867
09/16/2004 8:30 p 66.7 66.7 66.7 67.2 66.2 100 66.7 0.0 0.0 --- 0.00 29.866
09/16/2004 9:00 p 66.0 66.0 66.0 66.4 65.8 100 66.0 0.0 0.0 --- 0.00 29.868
09/16/2004 9:30 p 66.0 66.0 66.0 66.4 65.4 100 66.0 0.0 0.0 --- 0.00 29.869
09/16/2004 10:00 p 65.1 65.1 65.1 65.4 64.9 100 65.1 0.0 0.0 --- 0.00 29.859
09/16/2004 10:30 p 64.6 64.6 64.6 64.9 64.3 100 64.6 0.0 0.0 --- 0.00 29.861
09/16/2004 11:00 p 64.1 64.1 64.1 64.3 63.9 100 64.1 0.0 0.0 --- 0.00 29.857
09/16/2004 11:30 p 63.7 63.7 63.7 64.0 63.5 100 63.7 0.0 0.0 --- 0.00 29.852
09/17/2004 12:00 a 63.6 63.6 63.6 63.7 63.5 100 63.6 0.0 0.0 --- 0.00 29.855
09/17/2004 12:30 a 63.4 63.4 63.4 63.5 63.3 100 63.4 0.0 0.0 --- 0.00 29.856
09/17/2004 1:00 a 63.2 63.2 63.2 63.4 63.0 100 63.2 0.0 0.0 --- 0.00 29.860
09/17/2004 1:30 a 62.9 62.9 62.9 63.1 62.7 100 62.9 0.0 0.0 --- 0.00 29.863
09/17/2004 2:00 a 62.7 62.7 62.7 62.8 62.6 100 62.7 0.0 0.0 --- 0.00 29.861
09/17/2004 2:30 a 62.8 62.8 62.8 63.1 62.7 100 62.8 0.0 0.0 --- 0.00 29.857
09/17/2004 3:00 a 63.3 63.3 63.3 63.5 63.1 100 63.3 0.0 0.0 --- 0.00 29.843
09/17/2004 3:30 a 63.6 63.6 63.6 63.7 63.5 100 63.6 0.0 0.0 --- 0.00 29.835
09/17/2004 4:00 a 63.6 63.6 63.6 63.7 63.4 100 63.6 0.0 0.0 --- 0.00 29.825
09/17/2004 4:30 a 63.2 63.2 63.2 63.4 63.0 100 63.2 0.0 0.0 --- 0.00 29.829
09/17/2004 5:00 a 63.2 63.2 63.2 63.4 63.0 100 63.2 0.0 0.0 --- 0.00 29.828
09/17/2004 5:30 a 63.4 63.4 63.4 63.6 63.3 100 63.4 0.0 0.0 --- 0.00 29.824
09/17/2004 6:00 a 63.9 63.9 63.9 64.2 63.6 100 63.9 0.0 0.0 --- 0.00 29.832
09/17/2004 6:30 a 64.2 64.2 64.2 64.4 64.1 100 64.2 0.0 0.0 --- 0.00 29.841
09/17/2004 7:00 a 64.6 64.6 64.6 64.9 64.4 100 64.6 0.0 0.0 --- 0.00 29.841
09/17/2004 7:30 a 65.3 65.3 65.3 65.8 64.9 100 65.3 0.0 0.0 --- 0.00 29.839
09/17/2004 8:00 a 66.2 66.2 66.2 66.7 65.8 100 66.2 0.0 0.0 --- 0.00 29.832
09/17/2004 8:30 a 67.0 67.0 67.0 67.4 66.6 100 67.0 0.0 0.0 --- 0.00 29.820
09/17/2004 9:00 a 67.8 67.8 67.8 68.0 67.4 100 67.8 0.0 0.0 --- 0.00 29.838
09/17/2004 9:30 a 70.0 68.2 68.2 68.4 68.0 100 68.2 0.0 0.0 --- 0.00 29.838
09/17/2004 10:00 a 72.0 68.9 68.9 69.3 68.4 100 68.9 0.0 0.0 --- 0.00 29.827
09/17/2004 10:30 a 74.0 69.5 69.5 69.7 69.3 100 69.5 0.0 0.0 --- 0.00 29.819
09/17/2004 11:00 a 75.0 71.0 71.0 72.1 69.7 100 71.0 0.0 1.0 E 0.00 29.820
09/17/2004 11:30 a 76.2 72.9 72.9 73.7 72.1 96 71.7 0.0 0.0 --- 0.00 29.813
09/17/2004 12:00 p 78.2 75.0 75.0 75.8 73.7 92 72.5 0.0 2.0 E 0.00 29.797
09/17/2004 12:30 p 79.9 76.1 76.1 76.3 75.7 89 72.6 0.0 1.0 --- 0.00 29.788
09/17/2004 1:00 p 79.5 76.3 76.3 77.0 75.9 85 71.5 0.0 0.0 --- 0.00 29.782
09/17/2004 1:30 p 81.0 77.2 77.2 77.5 76.7 85 72.3 0.0 0.0 --- 0.00 29.777
09/17/2004 2:00 p 81.0 76.7 76.7 77.0 76.1 86 72.2 0.0 1.0 --- 0.00 29.766
09/17/2004 2:30 p 80.6 77.4 77.4 78.6 76.2 78 70.0 0.0 0.0 --- 0.00 29.754
09/17/2004 3:00 p 82.0 78.6 78.6 78.8 78.3 75 70.0 0.0 0.0 --- 0.00 29.734
09/17/2004 3:30 p 82.4 79.1 79.1 79.8 78.7 77 71.3 0.0 0.0 --- 0.00 29.716
09/17/2004 4:00 p 82.4 79.2 79.2 80.0 78.5 77 71.4 0.0 0.0 --- 0.00 29.707
09/17/2004 4:30 p 82.2 77.7 77.7 78.5 76.9 82 71.8 0.0 1.0 N 0.00 29.706
09/17/2004 5:00 p 79.5 76.4 76.4 76.9 76.0 85 71.6 0.0 2.0 N 0.00 29.695
09/17/2004 5:30 p 79.6 75.8 75.8 76.1 75.7 86 71.3 0.0 2.0 N 0.00 29.696
09/17/2004 6:00 p 79.6 75.8 75.8 76.0 75.6 86 71.3 0.0 2.0 NNW 0.00 29.695
09/17/2004 6:30 p 77.6 75.3 75.3 75.6 75.0 86 70.8 0.0 3.0 NNW 0.00 29.699
09/17/2004 7:00 p 77.8 74.6 74.6 75.0 74.3 88 70.8 0.0 2.0 NNW 0.00 29.690
09/17/2004 7:30 p 76.0 74.1 74.1 74.3 74.0 90 71.0 0.0 2.0 NNW 0.00 29.689
09/17/2004 8:00 p 76.4 73.8 73.8 74.0 73.8 92 71.3 0.0 3.0 NNW 0.00 29.686
09/17/2004 8:30 p 76.8 73.7 73.7 73.8 73.6 94 71.9 0.0 2.0 NNW 0.00 29.689
09/17/2004 9:00 p 76.8 73.6 73.6 73.7 73.6 94 71.8 0.0 2.0 NNW 0.00 29.681
09/17/2004 9:30 p 77.0 72.5 72.5 73.6 72.2 100 72.5 0.0 2.0 NNW 0.01 29.669
09/17/2004 10:00 p 76.0 72.3 72.3 72.4 72.2 100 72.3 0.0 1.0 NNW 0.00 29.662
09/17/2004 10:30 p 77.0 72.5 72.5 72.5 72.4 100 72.5 0.0 1.0 --- 0.00 29.653
09/17/2004 11:00 p 77.0 72.5 72.5 72.6 72.5 100 72.5 0.0 0.0 --- 0.00 29.643
09/17/2004 11:30 p 77.0 72.6 72.6 72.8 72.5 100 72.6 0.0 0.0 --- 0.00 29.637
09/18/2004 12:00 a 77.0 72.9 72.9 73.1 72.8 100 72.9 0.0 0.0 --- 0.00 29.620
09/18/2004 12:30 a 77.0 73.2 73.2 73.5 72.9 100 73.2 0.0 2.0 NNW 0.00 29.614
09/18/2004 1:00 a 78.0 73.6 73.6 73.6 73.4 100 73.6 0.0 2.0 NNW 0.00 29.599
09/18/2004 1:30 a 78.0 73.7 73.7 73.9 73.6 100 73.7 0.0 2.0 NNW 0.00 29.589
09/18/2004 2:00 a 78.0 74.0 74.0 74.0 73.9 100 74.0 0.0 2.0 NNW 0.00 29.575
09/18/2004 2:30 a 78.0 74.0 74.0 74.1 74.0 100 74.0 0.0 2.0 NNW 0.00 29.559
09/18/2004 3:00 a 78.0 74.1 74.1 74.2 74.1 100 74.1 0.0 3.0 NW 0.00 29.545
09/18/2004 3:30 a 78.0 73.7 73.7 74.1 73.4 100 73.7 0.0 2.0 NW 0.02 29.532
09/18/2004 4:00 a 78.0 73.5